<?xml version="1.0" encoding="UTF-8" standalone="no" ?>
<gpx xmlns="http://www.topografix.com/GPX/1/1" xmlns:xsi="http://www.w3.org/2001/XMLSchema-instance" xsi:schemaLocation="http://www.topografix.com/GPX/1/1 http://www.topografix.com/GPX/1/1/gpx.xsd" version="1.1" creator="VisuGPX - https://www.visugpx.com">
  <metadata>
    <name>Seillons - Saint Martin de Pallières</name>
    <desc><![CDATA[Parcours sans difficultés au départ de Seillons en direction de Saint Martin de Pallières]]></desc>
  </metadata>
  <trk>
    <name><![CDATA[20180421073011-vwHE4]]></name>
    <trkseg>
      <trkpt lat="43.50406" lon="5.8862">
        <ele>313</ele>
        <time>2016-06-05T05:08:32Z</time>
      </trkpt>
      <trkpt lat="43.50424" lon="5.8861">
        <ele>317</ele>
        <time>2016-06-05T05:08:40Z</time>
      </trkpt>
      <trkpt lat="43.50441" lon="5.88597">
        <ele>317</ele>
        <time>2016-06-05T05:08:49Z</time>
      </trkpt>
      <trkpt lat="43.50459" lon="5.88584">
        <ele>317</ele>
        <time>2016-06-05T05:08:57Z</time>
      </trkpt>
      <trkpt lat="43.50477" lon="5.88573">
        <ele>319</ele>
        <time>2016-06-05T05:09:05Z</time>
      </trkpt>
      <trkpt lat="43.50495" lon="5.88562">
        <ele>319</ele>
        <time>2016-06-05T05:09:13Z</time>
      </trkpt>
      <trkpt lat="43.50512" lon="5.88548">
        <ele>321</ele>
        <time>2016-06-05T05:09:21Z</time>
      </trkpt>
      <trkpt lat="43.5053" lon="5.88532">
        <ele>322</ele>
        <time>2016-06-05T05:09:28Z</time>
      </trkpt>
      <trkpt lat="43.50545" lon="5.88514">
        <ele>322</ele>
        <time>2016-06-05T05:09:35Z</time>
      </trkpt>
      <trkpt lat="43.50559" lon="5.88495">
        <ele>325</ele>
        <time>2016-06-05T05:09:42Z</time>
      </trkpt>
      <trkpt lat="43.50572" lon="5.88477">
        <ele>325</ele>
        <time>2016-06-05T05:09:49Z</time>
      </trkpt>
      <trkpt lat="43.50588" lon="5.88459">
        <ele>324</ele>
        <time>2016-06-05T05:09:57Z</time>
      </trkpt>
      <trkpt lat="43.50606" lon="5.88452">
        <ele>325</ele>
        <time>2016-06-05T05:10:05Z</time>
      </trkpt>
      <trkpt lat="43.50625" lon="5.88448">
        <ele>324</ele>
        <time>2016-06-05T05:10:13Z</time>
      </trkpt>
      <trkpt lat="43.50643" lon="5.88436">
        <ele>324</ele>
        <time>2016-06-05T05:10:21Z</time>
      </trkpt>
      <trkpt lat="43.50663" lon="5.88429">
        <ele>322</ele>
        <time>2016-06-05T05:10:29Z</time>
      </trkpt>
      <trkpt lat="43.5068" lon="5.88415">
        <ele>324</ele>
        <time>2016-06-05T05:10:37Z</time>
      </trkpt>
      <trkpt lat="43.50693" lon="5.88394">
        <ele>327</ele>
        <time>2016-06-05T05:10:45Z</time>
      </trkpt>
      <trkpt lat="43.50706" lon="5.88378">
        <ele>328</ele>
        <time>2016-06-05T05:10:52Z</time>
      </trkpt>
      <trkpt lat="43.5072" lon="5.88357">
        <ele>329</ele>
        <time>2016-06-05T05:11:00Z</time>
      </trkpt>
      <trkpt lat="43.50729" lon="5.88333">
        <ele>333</ele>
        <time>2016-06-05T05:11:07Z</time>
      </trkpt>
      <trkpt lat="43.50739" lon="5.88311">
        <ele>334</ele>
        <time>2016-06-05T05:11:14Z</time>
      </trkpt>
      <trkpt lat="43.50754" lon="5.88294">
        <ele>334</ele>
        <time>2016-06-05T05:11:22Z</time>
      </trkpt>
      <trkpt lat="43.50772" lon="5.88289">
        <ele>335</ele>
        <time>2016-06-05T05:11:29Z</time>
      </trkpt>
      <trkpt lat="43.50793" lon="5.88291">
        <ele>336</ele>
        <time>2016-06-05T05:11:36Z</time>
      </trkpt>
      <trkpt lat="43.50811" lon="5.883">
        <ele>335</ele>
        <time>2016-06-05T05:11:42Z</time>
      </trkpt>
      <trkpt lat="43.50825" lon="5.88319">
        <ele>333</ele>
        <time>2016-06-05T05:11:49Z</time>
      </trkpt>
      <trkpt lat="43.50835" lon="5.88343">
        <ele>332</ele>
        <time>2016-06-05T05:11:56Z</time>
      </trkpt>
      <trkpt lat="43.50832" lon="5.88369">
        <ele>329</ele>
        <time>2016-06-05T05:12:04Z</time>
      </trkpt>
      <trkpt lat="43.50832" lon="5.88395">
        <ele>329</ele>
        <time>2016-06-05T05:12:13Z</time>
      </trkpt>
      <trkpt lat="43.50848" lon="5.8841">
        <ele>331</ele>
        <time>2016-06-05T05:12:21Z</time>
      </trkpt>
      <trkpt lat="43.50865" lon="5.88425">
        <ele>335</ele>
        <time>2016-06-05T05:12:30Z</time>
      </trkpt>
      <trkpt lat="43.50881" lon="5.88436">
        <ele>337</ele>
        <time>2016-06-05T05:12:36Z</time>
      </trkpt>
      <trkpt lat="43.50896" lon="5.8845">
        <ele>337</ele>
        <time>2016-06-05T05:12:44Z</time>
      </trkpt>
      <trkpt lat="43.5091" lon="5.88467">
        <ele>339</ele>
        <time>2016-06-05T05:12:52Z</time>
      </trkpt>
      <trkpt lat="43.50925" lon="5.88484">
        <ele>341</ele>
        <time>2016-06-05T05:13:00Z</time>
      </trkpt>
      <trkpt lat="43.50943" lon="5.88495">
        <ele>341</ele>
        <time>2016-06-05T05:13:12Z</time>
      </trkpt>
      <trkpt lat="43.50964" lon="5.88493">
        <ele>341</ele>
        <time>2016-06-05T05:13:21Z</time>
      </trkpt>
      <trkpt lat="43.50983" lon="5.88494">
        <ele>341</ele>
        <time>2016-06-05T05:13:29Z</time>
      </trkpt>
      <trkpt lat="43.51001" lon="5.88493">
        <ele>342</ele>
        <time>2016-06-05T05:13:38Z</time>
      </trkpt>
      <trkpt lat="43.51019" lon="5.88498">
        <ele>344</ele>
        <time>2016-06-05T05:13:46Z</time>
      </trkpt>
      <trkpt lat="43.51037" lon="5.88507">
        <ele>348</ele>
        <time>2016-06-05T05:13:54Z</time>
      </trkpt>
      <trkpt lat="43.51054" lon="5.88521">
        <ele>350</ele>
        <time>2016-06-05T05:14:03Z</time>
      </trkpt>
      <trkpt lat="43.51072" lon="5.88534">
        <ele>350</ele>
        <time>2016-06-05T05:14:12Z</time>
      </trkpt>
      <trkpt lat="43.51089" lon="5.88547">
        <ele>354</ele>
        <time>2016-06-05T05:14:19Z</time>
      </trkpt>
      <trkpt lat="43.51097" lon="5.88571">
        <ele>354</ele>
        <time>2016-06-05T05:14:29Z</time>
      </trkpt>
      <trkpt lat="43.51102" lon="5.88597">
        <ele>356</ele>
        <time>2016-06-05T05:14:38Z</time>
      </trkpt>
      <trkpt lat="43.51107" lon="5.88623">
        <ele>358</ele>
        <time>2016-06-05T05:14:47Z</time>
      </trkpt>
      <trkpt lat="43.51106" lon="5.8865">
        <ele>358</ele>
        <time>2016-06-05T05:14:57Z</time>
      </trkpt>
      <trkpt lat="43.51119" lon="5.88668">
        <ele>361</ele>
        <time>2016-06-05T05:15:08Z</time>
      </trkpt>
      <trkpt lat="43.51138" lon="5.88674">
        <ele>361</ele>
        <time>2016-06-05T05:15:20Z</time>
      </trkpt>
      <trkpt lat="43.5115" lon="5.88693">
        <ele>361</ele>
        <time>2016-06-05T05:15:29Z</time>
      </trkpt>
      <trkpt lat="43.51168" lon="5.88704">
        <ele>360</ele>
        <time>2016-06-05T05:15:40Z</time>
      </trkpt>
      <trkpt lat="43.51187" lon="5.88704">
        <ele>360</ele>
        <time>2016-06-05T05:15:51Z</time>
      </trkpt>
      <trkpt lat="43.51205" lon="5.88707">
        <ele>360</ele>
        <time>2016-06-05T05:16:02Z</time>
      </trkpt>
      <trkpt lat="43.51223" lon="5.88709">
        <ele>360</ele>
        <time>2016-06-05T05:16:13Z</time>
      </trkpt>
      <trkpt lat="43.51239" lon="5.88721">
        <ele>360</ele>
        <time>2016-06-05T05:16:23Z</time>
      </trkpt>
      <trkpt lat="43.51256" lon="5.88731">
        <ele>361</ele>
        <time>2016-06-05T05:16:34Z</time>
      </trkpt>
      <trkpt lat="43.51273" lon="5.88745">
        <ele>362</ele>
        <time>2016-06-05T05:16:45Z</time>
      </trkpt>
      <trkpt lat="43.51281" lon="5.88768">
        <ele>363</ele>
        <time>2016-06-05T05:16:57Z</time>
      </trkpt>
      <trkpt lat="43.51285" lon="5.88794">
        <ele>365</ele>
        <time>2016-06-05T05:17:08Z</time>
      </trkpt>
      <trkpt lat="43.51296" lon="5.88814">
        <ele>365</ele>
        <time>2016-06-05T05:17:20Z</time>
      </trkpt>
      <trkpt lat="43.51319" lon="5.88816">
        <ele>365</ele>
        <time>2016-06-05T05:18:50Z</time>
      </trkpt>
      <trkpt lat="43.51332" lon="5.88796">
        <ele>365</ele>
        <time>2016-06-05T05:19:28Z</time>
      </trkpt>
      <trkpt lat="43.51349" lon="5.88785">
        <ele>369</ele>
        <time>2016-06-05T05:19:44Z</time>
      </trkpt>
      <trkpt lat="43.51363" lon="5.88802">
        <ele>370</ele>
        <time>2016-06-05T05:19:54Z</time>
      </trkpt>
      <trkpt lat="43.51366" lon="5.88827">
        <ele>369</ele>
        <time>2016-06-05T05:20:07Z</time>
      </trkpt>
      <trkpt lat="43.51383" lon="5.88836">
        <ele>372</ele>
        <time>2016-06-05T05:20:25Z</time>
      </trkpt>
      <trkpt lat="43.514" lon="5.88826">
        <ele>372</ele>
        <time>2016-06-05T05:20:37Z</time>
      </trkpt>
      <trkpt lat="43.51419" lon="5.88827">
        <ele>375</ele>
        <time>2016-06-05T05:20:49Z</time>
      </trkpt>
      <trkpt lat="43.5143" lon="5.88846">
        <ele>376</ele>
        <time>2016-06-05T05:20:59Z</time>
      </trkpt>
      <trkpt lat="43.51434" lon="5.88872">
        <ele>378</ele>
        <time>2016-06-05T05:21:10Z</time>
      </trkpt>
      <trkpt lat="43.51453" lon="5.88871">
        <ele>379</ele>
        <time>2016-06-05T05:21:24Z</time>
      </trkpt>
      <trkpt lat="43.51473" lon="5.88876">
        <ele>380</ele>
        <time>2016-06-05T05:21:37Z</time>
      </trkpt>
      <trkpt lat="43.51486" lon="5.88893">
        <ele>380</ele>
        <time>2016-06-05T05:21:48Z</time>
      </trkpt>
      <trkpt lat="43.51499" lon="5.88912">
        <ele>380</ele>
        <time>2016-06-05T05:21:59Z</time>
      </trkpt>
      <trkpt lat="43.51513" lon="5.88931">
        <ele>383</ele>
        <time>2016-06-05T05:22:10Z</time>
      </trkpt>
      <trkpt lat="43.51532" lon="5.88935">
        <ele>385</ele>
        <time>2016-06-05T05:22:21Z</time>
      </trkpt>
      <trkpt lat="43.51552" lon="5.88934">
        <ele>386</ele>
        <time>2016-06-05T05:22:31Z</time>
      </trkpt>
      <trkpt lat="43.5157" lon="5.88937">
        <ele>386</ele>
        <time>2016-06-05T05:22:43Z</time>
      </trkpt>
      <trkpt lat="43.51585" lon="5.88953">
        <ele>389</ele>
        <time>2016-06-05T05:22:53Z</time>
      </trkpt>
      <trkpt lat="43.51599" lon="5.88969">
        <ele>389</ele>
        <time>2016-06-05T05:23:03Z</time>
      </trkpt>
      <trkpt lat="43.51616" lon="5.88974">
        <ele>390</ele>
        <time>2016-06-05T05:23:13Z</time>
      </trkpt>
      <trkpt lat="43.51635" lon="5.88966">
        <ele>391</ele>
        <time>2016-06-05T05:23:24Z</time>
      </trkpt>
      <trkpt lat="43.51652" lon="5.88956">
        <ele>391</ele>
        <time>2016-06-05T05:23:33Z</time>
      </trkpt>
      <trkpt lat="43.51671" lon="5.88955">
        <ele>394</ele>
        <time>2016-06-05T05:23:42Z</time>
      </trkpt>
      <trkpt lat="43.51691" lon="5.88955">
        <ele>394</ele>
        <time>2016-06-05T05:23:52Z</time>
      </trkpt>
      <trkpt lat="43.51706" lon="5.8894">
        <ele>394</ele>
        <time>2016-06-05T05:24:03Z</time>
      </trkpt>
      <trkpt lat="43.51718" lon="5.88921">
        <ele>394</ele>
        <time>2016-06-05T05:24:12Z</time>
      </trkpt>
      <trkpt lat="43.51733" lon="5.88903">
        <ele>395</ele>
        <time>2016-06-05T05:24:22Z</time>
      </trkpt>
      <trkpt lat="43.51752" lon="5.88896">
        <ele>396</ele>
        <time>2016-06-05T05:24:30Z</time>
      </trkpt>
      <trkpt lat="43.51771" lon="5.88898">
        <ele>397</ele>
        <time>2016-06-05T05:24:41Z</time>
      </trkpt>
      <trkpt lat="43.51789" lon="5.88887">
        <ele>398</ele>
        <time>2016-06-05T05:24:51Z</time>
      </trkpt>
      <trkpt lat="43.51804" lon="5.88871">
        <ele>398</ele>
        <time>2016-06-05T05:25:01Z</time>
      </trkpt>
      <trkpt lat="43.5182" lon="5.88858">
        <ele>399</ele>
        <time>2016-06-05T05:25:11Z</time>
      </trkpt>
      <trkpt lat="43.51837" lon="5.88845">
        <ele>401</ele>
        <time>2016-06-05T05:25:21Z</time>
      </trkpt>
      <trkpt lat="43.51856" lon="5.88838">
        <ele>402</ele>
        <time>2016-06-05T05:25:31Z</time>
      </trkpt>
      <trkpt lat="43.51874" lon="5.88847">
        <ele>402</ele>
        <time>2016-06-05T05:25:41Z</time>
      </trkpt>
      <trkpt lat="43.51885" lon="5.88868">
        <ele>402</ele>
        <time>2016-06-05T05:25:51Z</time>
      </trkpt>
      <trkpt lat="43.519" lon="5.88882">
        <ele>402</ele>
        <time>2016-06-05T05:26:01Z</time>
      </trkpt>
      <trkpt lat="43.51918" lon="5.8889">
        <ele>406</ele>
        <time>2016-06-05T05:26:10Z</time>
      </trkpt>
      <trkpt lat="43.51932" lon="5.88907">
        <ele>405</ele>
        <time>2016-06-05T05:26:20Z</time>
      </trkpt>
      <trkpt lat="43.51943" lon="5.88927">
        <ele>406</ele>
        <time>2016-06-05T05:26:29Z</time>
      </trkpt>
      <trkpt lat="43.51955" lon="5.88946">
        <ele>407</ele>
        <time>2016-06-05T05:26:37Z</time>
      </trkpt>
      <trkpt lat="43.51969" lon="5.88962">
        <ele>408</ele>
        <time>2016-06-05T05:26:47Z</time>
      </trkpt>
      <trkpt lat="43.51988" lon="5.88967">
        <ele>408</ele>
        <time>2016-06-05T05:26:56Z</time>
      </trkpt>
      <trkpt lat="43.52006" lon="5.88972">
        <ele>410</ele>
        <time>2016-06-05T05:27:05Z</time>
      </trkpt>
      <trkpt lat="43.52026" lon="5.88975">
        <ele>411</ele>
        <time>2016-06-05T05:27:15Z</time>
      </trkpt>
      <trkpt lat="43.52045" lon="5.88979">
        <ele>411</ele>
        <time>2016-06-05T05:27:24Z</time>
      </trkpt>
      <trkpt lat="43.52065" lon="5.88981">
        <ele>412</ele>
        <time>2016-06-05T05:27:34Z</time>
      </trkpt>
      <trkpt lat="43.52084" lon="5.88983">
        <ele>415</ele>
        <time>2016-06-05T05:27:44Z</time>
      </trkpt>
      <trkpt lat="43.52102" lon="5.88985">
        <ele>415</ele>
        <time>2016-06-05T05:27:53Z</time>
      </trkpt>
      <trkpt lat="43.52121" lon="5.88987">
        <ele>416</ele>
        <time>2016-06-05T05:28:02Z</time>
      </trkpt>
      <trkpt lat="43.5214" lon="5.88995">
        <ele>417</ele>
        <time>2016-06-05T05:28:11Z</time>
      </trkpt>
      <trkpt lat="43.52159" lon="5.89">
        <ele>417</ele>
        <time>2016-06-05T05:28:21Z</time>
      </trkpt>
      <trkpt lat="43.52179" lon="5.89004">
        <ele>419</ele>
        <time>2016-06-05T05:28:31Z</time>
      </trkpt>
      <trkpt lat="43.52198" lon="5.89006">
        <ele>421</ele>
        <time>2016-06-05T05:28:41Z</time>
      </trkpt>
      <trkpt lat="43.52217" lon="5.8901">
        <ele>421</ele>
        <time>2016-06-05T05:28:50Z</time>
      </trkpt>
      <trkpt lat="43.52235" lon="5.89011">
        <ele>421</ele>
        <time>2016-06-05T05:28:59Z</time>
      </trkpt>
      <trkpt lat="43.52253" lon="5.89013">
        <ele>422</ele>
        <time>2016-06-05T05:29:08Z</time>
      </trkpt>
      <trkpt lat="43.52272" lon="5.89015">
        <ele>424</ele>
        <time>2016-06-05T05:29:18Z</time>
      </trkpt>
      <trkpt lat="43.52291" lon="5.89019">
        <ele>425</ele>
        <time>2016-06-05T05:29:28Z</time>
      </trkpt>
      <trkpt lat="43.5231" lon="5.89024">
        <ele>426</ele>
        <time>2016-06-05T05:29:37Z</time>
      </trkpt>
      <trkpt lat="43.52328" lon="5.89034">
        <ele>426</ele>
        <time>2016-06-05T05:29:46Z</time>
      </trkpt>
      <trkpt lat="43.52348" lon="5.89038">
        <ele>429</ele>
        <time>2016-06-05T05:29:56Z</time>
      </trkpt>
      <trkpt lat="43.52366" lon="5.89031">
        <ele>429</ele>
        <time>2016-06-05T05:30:05Z</time>
      </trkpt>
      <trkpt lat="43.52382" lon="5.89021">
        <ele>429</ele>
        <time>2016-06-05T05:30:14Z</time>
      </trkpt>
      <trkpt lat="43.52401" lon="5.89012">
        <ele>430</ele>
        <time>2016-06-05T05:30:23Z</time>
      </trkpt>
      <trkpt lat="43.52418" lon="5.89005">
        <ele>431</ele>
        <time>2016-06-05T05:30:32Z</time>
      </trkpt>
      <trkpt lat="43.52436" lon="5.88994">
        <ele>433</ele>
        <time>2016-06-05T05:30:41Z</time>
      </trkpt>
      <trkpt lat="43.52454" lon="5.88987">
        <ele>434</ele>
        <time>2016-06-05T05:30:50Z</time>
      </trkpt>
      <trkpt lat="43.52473" lon="5.8898">
        <ele>434</ele>
        <time>2016-06-05T05:31:00Z</time>
      </trkpt>
      <trkpt lat="43.52492" lon="5.88971">
        <ele>434</ele>
        <time>2016-06-05T05:31:10Z</time>
      </trkpt>
      <trkpt lat="43.52509" lon="5.88964">
        <ele>437</ele>
        <time>2016-06-05T05:31:19Z</time>
      </trkpt>
      <trkpt lat="43.52525" lon="5.88948">
        <ele>437</ele>
        <time>2016-06-05T05:31:28Z</time>
      </trkpt>
      <trkpt lat="43.52542" lon="5.88936">
        <ele>438</ele>
        <time>2016-06-05T05:31:38Z</time>
      </trkpt>
      <trkpt lat="43.52559" lon="5.88922">
        <ele>438</ele>
        <time>2016-06-05T05:31:48Z</time>
      </trkpt>
      <trkpt lat="43.52575" lon="5.88907">
        <ele>440</ele>
        <time>2016-06-05T05:31:58Z</time>
      </trkpt>
      <trkpt lat="43.52591" lon="5.88893">
        <ele>441</ele>
        <time>2016-06-05T05:32:07Z</time>
      </trkpt>
      <trkpt lat="43.52607" lon="5.88883">
        <ele>442</ele>
        <time>2016-06-05T05:32:16Z</time>
      </trkpt>
      <trkpt lat="43.52625" lon="5.88872">
        <ele>443</ele>
        <time>2016-06-05T05:32:26Z</time>
      </trkpt>
      <trkpt lat="43.52637" lon="5.88852">
        <ele>443</ele>
        <time>2016-06-05T05:32:35Z</time>
      </trkpt>
      <trkpt lat="43.52648" lon="5.88832">
        <ele>446</ele>
        <time>2016-06-05T05:32:44Z</time>
      </trkpt>
      <trkpt lat="43.52664" lon="5.88818">
        <ele>446</ele>
        <time>2016-06-05T05:32:55Z</time>
      </trkpt>
      <trkpt lat="43.52682" lon="5.88809">
        <ele>448</ele>
        <time>2016-06-05T05:33:07Z</time>
      </trkpt>
      <trkpt lat="43.52699" lon="5.88799">
        <ele>449</ele>
        <time>2016-06-05T05:33:19Z</time>
      </trkpt>
      <trkpt lat="43.52717" lon="5.88792">
        <ele>450</ele>
        <time>2016-06-05T05:33:31Z</time>
      </trkpt>
      <trkpt lat="43.52735" lon="5.88799">
        <ele>450</ele>
        <time>2016-06-05T05:33:43Z</time>
      </trkpt>
      <trkpt lat="43.52753" lon="5.88807">
        <ele>451</ele>
        <time>2016-06-05T05:33:53Z</time>
      </trkpt>
      <trkpt lat="43.52771" lon="5.88813">
        <ele>451</ele>
        <time>2016-06-05T05:34:03Z</time>
      </trkpt>
      <trkpt lat="43.5279" lon="5.88812">
        <ele>451</ele>
        <time>2016-06-05T05:34:13Z</time>
      </trkpt>
      <trkpt lat="43.52809" lon="5.88812">
        <ele>450</ele>
        <time>2016-06-05T05:35:04Z</time>
      </trkpt>
      <trkpt lat="43.52819" lon="5.88793">
        <ele>450</ele>
        <time>2016-06-05T05:39:37Z</time>
      </trkpt>
      <trkpt lat="43.52837" lon="5.88788">
        <ele>447</ele>
        <time>2016-06-05T05:39:44Z</time>
      </trkpt>
      <trkpt lat="43.52858" lon="5.88776">
        <ele>447</ele>
        <time>2016-06-05T05:39:50Z</time>
      </trkpt>
      <trkpt lat="43.52878" lon="5.88768">
        <ele>446</ele>
        <time>2016-06-05T05:39:54Z</time>
      </trkpt>
      <trkpt lat="43.52899" lon="5.88765">
        <ele>444</ele>
        <time>2016-06-05T05:39:58Z</time>
      </trkpt>
      <trkpt lat="43.52917" lon="5.88764">
        <ele>441</ele>
        <time>2016-06-05T05:40:01Z</time>
      </trkpt>
      <trkpt lat="43.52934" lon="5.88759">
        <ele>441</ele>
        <time>2016-06-05T05:40:04Z</time>
      </trkpt>
      <trkpt lat="43.52956" lon="5.88759">
        <ele>440</ele>
        <time>2016-06-05T05:40:09Z</time>
      </trkpt>
      <trkpt lat="43.52973" lon="5.88769">
        <ele>440</ele>
        <time>2016-06-05T05:40:13Z</time>
      </trkpt>
      <trkpt lat="43.52996" lon="5.88773">
        <ele>439</ele>
        <time>2016-06-05T05:40:17Z</time>
      </trkpt>
      <trkpt lat="43.53014" lon="5.88774">
        <ele>437</ele>
        <time>2016-06-05T05:40:20Z</time>
      </trkpt>
      <trkpt lat="43.53036" lon="5.88769">
        <ele>436</ele>
        <time>2016-06-05T05:40:24Z</time>
      </trkpt>
      <trkpt lat="43.53056" lon="5.88768">
        <ele>435</ele>
        <time>2016-06-05T05:40:28Z</time>
      </trkpt>
      <trkpt lat="43.53079" lon="5.88775">
        <ele>434</ele>
        <time>2016-06-05T05:40:32Z</time>
      </trkpt>
      <trkpt lat="43.53098" lon="5.8877">
        <ele>430</ele>
        <time>2016-06-05T05:40:35Z</time>
      </trkpt>
      <trkpt lat="43.53119" lon="5.88761">
        <ele>429</ele>
        <time>2016-06-05T05:40:39Z</time>
      </trkpt>
      <trkpt lat="43.53139" lon="5.88756">
        <ele>427</ele>
        <time>2016-06-05T05:40:44Z</time>
      </trkpt>
      <trkpt lat="43.53161" lon="5.88762">
        <ele>425</ele>
        <time>2016-06-05T05:40:48Z</time>
      </trkpt>
      <trkpt lat="43.5318" lon="5.88765">
        <ele>421</ele>
        <time>2016-06-05T05:40:51Z</time>
      </trkpt>
      <trkpt lat="43.532" lon="5.88768">
        <ele>420</ele>
        <time>2016-06-05T05:40:54Z</time>
      </trkpt>
      <trkpt lat="43.5322" lon="5.88769">
        <ele>418</ele>
        <time>2016-06-05T05:40:57Z</time>
      </trkpt>
      <trkpt lat="43.53239" lon="5.88773">
        <ele>417</ele>
        <time>2016-06-05T05:42:21Z</time>
      </trkpt>
      <trkpt lat="43.53254" lon="5.88788">
        <ele>412</ele>
        <time>2016-06-05T05:42:31Z</time>
      </trkpt>
      <trkpt lat="43.53269" lon="5.88807">
        <ele>412</ele>
        <time>2016-06-05T05:42:40Z</time>
      </trkpt>
      <trkpt lat="43.53287" lon="5.8882">
        <ele>411</ele>
        <time>2016-06-05T05:42:48Z</time>
      </trkpt>
      <trkpt lat="43.53302" lon="5.88832">
        <ele>410</ele>
        <time>2016-06-05T05:42:54Z</time>
      </trkpt>
      <trkpt lat="43.53319" lon="5.88851">
        <ele>412</ele>
        <time>2016-06-05T05:43:00Z</time>
      </trkpt>
      <trkpt lat="43.53332" lon="5.88872">
        <ele>413</ele>
        <time>2016-06-05T05:43:06Z</time>
      </trkpt>
      <trkpt lat="43.53345" lon="5.88892">
        <ele>407</ele>
        <time>2016-06-05T05:43:12Z</time>
      </trkpt>
      <trkpt lat="43.53357" lon="5.88914">
        <ele>407</ele>
        <time>2016-06-05T05:43:18Z</time>
      </trkpt>
      <trkpt lat="43.53369" lon="5.88936">
        <ele>407</ele>
        <time>2016-06-05T05:43:24Z</time>
      </trkpt>
      <trkpt lat="43.53381" lon="5.88956">
        <ele>407</ele>
        <time>2016-06-05T05:43:29Z</time>
      </trkpt>
      <trkpt lat="43.53397" lon="5.88973">
        <ele>407</ele>
        <time>2016-06-05T05:43:34Z</time>
      </trkpt>
      <trkpt lat="43.53413" lon="5.88987">
        <ele>406</ele>
        <time>2016-06-05T05:43:39Z</time>
      </trkpt>
      <trkpt lat="43.53432" lon="5.88997">
        <ele>402</ele>
        <time>2016-06-05T05:43:44Z</time>
      </trkpt>
      <trkpt lat="43.5345" lon="5.89003">
        <ele>399</ele>
        <time>2016-06-05T05:43:48Z</time>
      </trkpt>
      <trkpt lat="43.53464" lon="5.89017">
        <ele>398</ele>
        <time>2016-06-05T05:43:52Z</time>
      </trkpt>
      <trkpt lat="43.53469" lon="5.89042">
        <ele>397</ele>
        <time>2016-06-05T05:43:56Z</time>
      </trkpt>
      <trkpt lat="43.53465" lon="5.89068">
        <ele>397</ele>
        <time>2016-06-05T05:44:00Z</time>
      </trkpt>
      <trkpt lat="43.53453" lon="5.89089">
        <ele>397</ele>
        <time>2016-06-05T05:44:04Z</time>
      </trkpt>
      <trkpt lat="43.53437" lon="5.89107">
        <ele>398</ele>
        <time>2016-06-05T05:44:54Z</time>
      </trkpt>
      <trkpt lat="43.53423" lon="5.89123">
        <ele>398</ele>
        <time>2016-06-05T05:44:59Z</time>
      </trkpt>
      <trkpt lat="43.53407" lon="5.89136">
        <ele>403</ele>
        <time>2016-06-05T05:45:03Z</time>
      </trkpt>
      <trkpt lat="43.53391" lon="5.89151">
        <ele>403</ele>
        <time>2016-06-05T05:45:07Z</time>
      </trkpt>
      <trkpt lat="43.53373" lon="5.89165">
        <ele>403</ele>
        <time>2016-06-05T05:45:11Z</time>
      </trkpt>
      <trkpt lat="43.53355" lon="5.8918">
        <ele>398</ele>
        <time>2016-06-05T05:45:15Z</time>
      </trkpt>
      <trkpt lat="43.53337" lon="5.89196">
        <ele>397</ele>
        <time>2016-06-05T05:45:19Z</time>
      </trkpt>
      <trkpt lat="43.53319" lon="5.89213">
        <ele>398</ele>
        <time>2016-06-05T05:45:23Z</time>
      </trkpt>
      <trkpt lat="43.533" lon="5.89228">
        <ele>398</ele>
        <time>2016-06-05T05:45:27Z</time>
      </trkpt>
      <trkpt lat="43.53281" lon="5.89242">
        <ele>398</ele>
        <time>2016-06-05T05:45:31Z</time>
      </trkpt>
      <trkpt lat="43.53262" lon="5.89257">
        <ele>394</ele>
        <time>2016-06-05T05:45:35Z</time>
      </trkpt>
      <trkpt lat="43.53242" lon="5.89272">
        <ele>395</ele>
        <time>2016-06-05T05:45:39Z</time>
      </trkpt>
      <trkpt lat="43.53222" lon="5.8929">
        <ele>394</ele>
        <time>2016-06-05T05:45:43Z</time>
      </trkpt>
      <trkpt lat="43.53202" lon="5.89306">
        <ele>394</ele>
        <time>2016-06-05T05:45:47Z</time>
      </trkpt>
      <trkpt lat="43.5318" lon="5.89317">
        <ele>393</ele>
        <time>2016-06-05T05:45:51Z</time>
      </trkpt>
      <trkpt lat="43.53159" lon="5.89326">
        <ele>395</ele>
        <time>2016-06-05T05:45:55Z</time>
      </trkpt>
      <trkpt lat="43.53139" lon="5.89341">
        <ele>391</ele>
        <time>2016-06-05T05:45:59Z</time>
      </trkpt>
      <trkpt lat="43.53156" lon="5.8935">
        <ele>391</ele>
        <time>2016-06-05T05:46:29Z</time>
      </trkpt>
      <trkpt lat="43.53174" lon="5.89359">
        <ele>387</ele>
        <time>2016-06-05T05:46:38Z</time>
      </trkpt>
      <trkpt lat="43.53192" lon="5.89362">
        <ele>386</ele>
        <time>2016-06-05T05:46:44Z</time>
      </trkpt>
      <trkpt lat="43.5321" lon="5.89359">
        <ele>386</ele>
        <time>2016-06-05T05:46:49Z</time>
      </trkpt>
      <trkpt lat="43.53228" lon="5.89353">
        <ele>385</ele>
        <time>2016-06-05T05:46:54Z</time>
      </trkpt>
      <trkpt lat="43.53244" lon="5.8934">
        <ele>385</ele>
        <time>2016-06-05T05:46:59Z</time>
      </trkpt>
      <trkpt lat="43.5326" lon="5.89324">
        <ele>387</ele>
        <time>2016-06-05T05:47:06Z</time>
      </trkpt>
      <trkpt lat="43.53279" lon="5.89313">
        <ele>388</ele>
        <time>2016-06-05T05:47:12Z</time>
      </trkpt>
      <trkpt lat="43.53299" lon="5.89304">
        <ele>389</ele>
        <time>2016-06-05T05:47:17Z</time>
      </trkpt>
      <trkpt lat="43.53317" lon="5.89297">
        <ele>389</ele>
        <time>2016-06-05T05:47:22Z</time>
      </trkpt>
      <trkpt lat="43.53335" lon="5.89289">
        <ele>389</ele>
        <time>2016-06-05T05:47:27Z</time>
      </trkpt>
      <trkpt lat="43.53357" lon="5.89296">
        <ele>388</ele>
        <time>2016-06-05T05:47:32Z</time>
      </trkpt>
      <trkpt lat="43.53373" lon="5.89308">
        <ele>388</ele>
        <time>2016-06-05T05:47:36Z</time>
      </trkpt>
      <trkpt lat="43.53388" lon="5.89325">
        <ele>388</ele>
        <time>2016-06-05T05:47:43Z</time>
      </trkpt>
      <trkpt lat="43.53404" lon="5.89339">
        <ele>387</ele>
        <time>2016-06-05T05:47:52Z</time>
      </trkpt>
      <trkpt lat="43.53421" lon="5.8935">
        <ele>387</ele>
        <time>2016-06-05T05:48:00Z</time>
      </trkpt>
      <trkpt lat="43.53435" lon="5.89369">
        <ele>385</ele>
        <time>2016-06-05T05:48:08Z</time>
      </trkpt>
      <trkpt lat="43.53449" lon="5.89387">
        <ele>384</ele>
        <time>2016-06-05T05:48:17Z</time>
      </trkpt>
      <trkpt lat="43.53467" lon="5.89395">
        <ele>383</ele>
        <time>2016-06-05T05:48:27Z</time>
      </trkpt>
      <trkpt lat="43.53482" lon="5.89378">
        <ele>383</ele>
        <time>2016-06-05T05:48:34Z</time>
      </trkpt>
      <trkpt lat="43.53501" lon="5.89364">
        <ele>381</ele>
        <time>2016-06-05T05:48:39Z</time>
      </trkpt>
      <trkpt lat="43.53523" lon="5.89359">
        <ele>380</ele>
        <time>2016-06-05T05:48:44Z</time>
      </trkpt>
      <trkpt lat="43.53546" lon="5.89358">
        <ele>379</ele>
        <time>2016-06-05T05:48:48Z</time>
      </trkpt>
      <trkpt lat="43.53568" lon="5.89365">
        <ele>378</ele>
        <time>2016-06-05T05:48:52Z</time>
      </trkpt>
      <trkpt lat="43.53586" lon="5.89376">
        <ele>377</ele>
        <time>2016-06-05T05:48:57Z</time>
      </trkpt>
      <trkpt lat="43.53607" lon="5.89387">
        <ele>376</ele>
        <time>2016-06-05T05:49:02Z</time>
      </trkpt>
      <trkpt lat="43.53625" lon="5.89396">
        <ele>377</ele>
        <time>2016-06-05T05:49:06Z</time>
      </trkpt>
      <trkpt lat="43.53647" lon="5.89396">
        <ele>377</ele>
        <time>2016-06-05T05:49:10Z</time>
      </trkpt>
      <trkpt lat="43.53665" lon="5.89389">
        <ele>377</ele>
        <time>2016-06-05T05:49:14Z</time>
      </trkpt>
      <trkpt lat="43.53682" lon="5.89377">
        <ele>379</ele>
        <time>2016-06-05T05:49:20Z</time>
      </trkpt>
      <trkpt lat="43.53699" lon="5.89367">
        <ele>379</ele>
        <time>2016-06-05T05:49:26Z</time>
      </trkpt>
      <trkpt lat="43.53718" lon="5.89365">
        <ele>379</ele>
        <time>2016-06-05T05:49:31Z</time>
      </trkpt>
      <trkpt lat="43.53736" lon="5.89352">
        <ele>379</ele>
        <time>2016-06-05T05:49:36Z</time>
      </trkpt>
      <trkpt lat="43.53755" lon="5.8934">
        <ele>379</ele>
        <time>2016-06-05T05:49:42Z</time>
      </trkpt>
      <trkpt lat="43.53772" lon="5.8933">
        <ele>379</ele>
        <time>2016-06-05T05:49:47Z</time>
      </trkpt>
      <trkpt lat="43.53791" lon="5.89323">
        <ele>380</ele>
        <time>2016-06-05T05:49:52Z</time>
      </trkpt>
      <trkpt lat="43.53811" lon="5.89317">
        <ele>380</ele>
        <time>2016-06-05T05:49:57Z</time>
      </trkpt>
      <trkpt lat="43.53832" lon="5.89306">
        <ele>380</ele>
        <time>2016-06-05T05:50:02Z</time>
      </trkpt>
      <trkpt lat="43.53851" lon="5.89295">
        <ele>380</ele>
        <time>2016-06-05T05:50:08Z</time>
      </trkpt>
      <trkpt lat="43.53871" lon="5.89297">
        <ele>380</ele>
        <time>2016-06-05T05:50:15Z</time>
      </trkpt>
      <trkpt lat="43.5389" lon="5.89299">
        <ele>380</ele>
        <time>2016-06-05T05:50:22Z</time>
      </trkpt>
      <trkpt lat="43.5391" lon="5.893">
        <ele>380</ele>
        <time>2016-06-05T05:50:35Z</time>
      </trkpt>
      <trkpt lat="43.53929" lon="5.893">
        <ele>381</ele>
        <time>2016-06-05T05:51:05Z</time>
      </trkpt>
      <trkpt lat="43.53948" lon="5.89309">
        <ele>381</ele>
        <time>2016-06-05T05:51:13Z</time>
      </trkpt>
      <trkpt lat="43.53967" lon="5.89321">
        <ele>381</ele>
        <time>2016-06-05T05:51:19Z</time>
      </trkpt>
      <trkpt lat="43.53986" lon="5.89328">
        <ele>381</ele>
        <time>2016-06-05T05:51:27Z</time>
      </trkpt>
      <trkpt lat="43.54004" lon="5.89333">
        <ele>382</ele>
        <time>2016-06-05T05:51:35Z</time>
      </trkpt>
      <trkpt lat="43.54022" lon="5.8934">
        <ele>382</ele>
        <time>2016-06-05T05:51:43Z</time>
      </trkpt>
      <trkpt lat="43.5404" lon="5.89349">
        <ele>383</ele>
        <time>2016-06-05T05:51:52Z</time>
      </trkpt>
      <trkpt lat="43.54059" lon="5.89355">
        <ele>383</ele>
        <time>2016-06-05T05:52:04Z</time>
      </trkpt>
      <trkpt lat="43.5408" lon="5.8935">
        <ele>384</ele>
        <time>2016-06-05T05:52:10Z</time>
      </trkpt>
      <trkpt lat="43.54097" lon="5.89343">
        <ele>385</ele>
        <time>2016-06-05T05:52:14Z</time>
      </trkpt>
      <trkpt lat="43.54117" lon="5.89331">
        <ele>389</ele>
        <time>2016-06-05T05:52:20Z</time>
      </trkpt>
      <trkpt lat="43.54134" lon="5.89318">
        <ele>389</ele>
        <time>2016-06-05T05:52:26Z</time>
      </trkpt>
      <trkpt lat="43.54153" lon="5.89312">
        <ele>390</ele>
        <time>2016-06-05T05:52:32Z</time>
      </trkpt>
      <trkpt lat="43.54176" lon="5.89315">
        <ele>390</ele>
        <time>2016-06-05T05:52:37Z</time>
      </trkpt>
      <trkpt lat="43.54197" lon="5.89318">
        <ele>390</ele>
        <time>2016-06-05T05:52:42Z</time>
      </trkpt>
      <trkpt lat="43.54216" lon="5.89325">
        <ele>390</ele>
        <time>2016-06-05T05:52:47Z</time>
      </trkpt>
      <trkpt lat="43.54233" lon="5.89334">
        <ele>385</ele>
        <time>2016-06-05T05:52:52Z</time>
      </trkpt>
      <trkpt lat="43.54252" lon="5.89341">
        <ele>385</ele>
        <time>2016-06-05T05:52:59Z</time>
      </trkpt>
      <trkpt lat="43.54271" lon="5.89339">
        <ele>385</ele>
        <time>2016-06-05T05:53:06Z</time>
      </trkpt>
      <trkpt lat="43.5429" lon="5.89341">
        <ele>386</ele>
        <time>2016-06-05T05:53:13Z</time>
      </trkpt>
      <trkpt lat="43.54309" lon="5.89345">
        <ele>386</ele>
        <time>2016-06-05T05:53:20Z</time>
      </trkpt>
      <trkpt lat="43.54329" lon="5.89351">
        <ele>387</ele>
        <time>2016-06-05T05:53:27Z</time>
      </trkpt>
      <trkpt lat="43.54347" lon="5.89354">
        <ele>388</ele>
        <time>2016-06-05T05:53:33Z</time>
      </trkpt>
      <trkpt lat="43.54367" lon="5.89355">
        <ele>388</ele>
        <time>2016-06-05T05:53:39Z</time>
      </trkpt>
      <trkpt lat="43.54389" lon="5.89354">
        <ele>388</ele>
        <time>2016-06-05T05:53:45Z</time>
      </trkpt>
      <trkpt lat="43.54407" lon="5.89347">
        <ele>389</ele>
        <time>2016-06-05T05:53:49Z</time>
      </trkpt>
      <trkpt lat="43.54426" lon="5.8934">
        <ele>392</ele>
        <time>2016-06-05T05:53:54Z</time>
      </trkpt>
      <trkpt lat="43.54444" lon="5.89332">
        <ele>393</ele>
        <time>2016-06-05T05:54:00Z</time>
      </trkpt>
      <trkpt lat="43.54464" lon="5.89324">
        <ele>394</ele>
        <time>2016-06-05T05:54:07Z</time>
      </trkpt>
      <trkpt lat="43.5448" lon="5.89312">
        <ele>395</ele>
        <time>2016-06-05T05:54:14Z</time>
      </trkpt>
      <trkpt lat="43.54499" lon="5.89305">
        <ele>396</ele>
        <time>2016-06-05T05:54:22Z</time>
      </trkpt>
      <trkpt lat="43.54518" lon="5.89309">
        <ele>401</ele>
        <time>2016-06-05T05:54:33Z</time>
      </trkpt>
      <trkpt lat="43.54535" lon="5.89316">
        <ele>402</ele>
        <time>2016-06-05T05:54:42Z</time>
      </trkpt>
      <trkpt lat="43.54554" lon="5.89322">
        <ele>404</ele>
        <time>2016-06-05T05:54:53Z</time>
      </trkpt>
      <trkpt lat="43.54573" lon="5.89324">
        <ele>405</ele>
        <time>2016-06-05T05:55:06Z</time>
      </trkpt>
      <trkpt lat="43.54591" lon="5.89324">
        <ele>408</ele>
        <time>2016-06-05T05:55:18Z</time>
      </trkpt>
      <trkpt lat="43.54609" lon="5.89317">
        <ele>410</ele>
        <time>2016-06-05T05:55:31Z</time>
      </trkpt>
      <trkpt lat="43.54627" lon="5.8931">
        <ele>411</ele>
        <time>2016-06-05T05:55:42Z</time>
      </trkpt>
      <trkpt lat="43.54645" lon="5.893">
        <ele>411</ele>
        <time>2016-06-05T05:55:53Z</time>
      </trkpt>
      <trkpt lat="43.54663" lon="5.89291">
        <ele>412</ele>
        <time>2016-06-05T05:56:03Z</time>
      </trkpt>
      <trkpt lat="43.54681" lon="5.89282">
        <ele>414</ele>
        <time>2016-06-05T05:56:13Z</time>
      </trkpt>
      <trkpt lat="43.54699" lon="5.89273">
        <ele>414</ele>
        <time>2016-06-05T05:56:20Z</time>
      </trkpt>
      <trkpt lat="43.54718" lon="5.8927">
        <ele>414</ele>
        <time>2016-06-05T05:56:28Z</time>
      </trkpt>
      <trkpt lat="43.54736" lon="5.89263">
        <ele>414</ele>
        <time>2016-06-05T05:56:36Z</time>
      </trkpt>
      <trkpt lat="43.54754" lon="5.89258">
        <ele>414</ele>
        <time>2016-06-05T05:56:43Z</time>
      </trkpt>
      <trkpt lat="43.54773" lon="5.89252">
        <ele>415</ele>
        <time>2016-06-05T05:56:50Z</time>
      </trkpt>
      <trkpt lat="43.54792" lon="5.89247">
        <ele>413</ele>
        <time>2016-06-05T05:56:57Z</time>
      </trkpt>
      <trkpt lat="43.54812" lon="5.89247">
        <ele>414</ele>
        <time>2016-06-05T05:57:04Z</time>
      </trkpt>
      <trkpt lat="43.54831" lon="5.89246">
        <ele>415</ele>
        <time>2016-06-05T05:57:11Z</time>
      </trkpt>
      <trkpt lat="43.5485" lon="5.89246">
        <ele>415</ele>
        <time>2016-06-05T05:57:17Z</time>
      </trkpt>
      <trkpt lat="43.5487" lon="5.89242">
        <ele>415</ele>
        <time>2016-06-05T05:57:23Z</time>
      </trkpt>
      <trkpt lat="43.54891" lon="5.89243">
        <ele>415</ele>
        <time>2016-06-05T05:57:29Z</time>
      </trkpt>
      <trkpt lat="43.5491" lon="5.89243">
        <ele>416</ele>
        <time>2016-06-05T05:57:35Z</time>
      </trkpt>
      <trkpt lat="43.54928" lon="5.89244">
        <ele>416</ele>
        <time>2016-06-05T05:57:40Z</time>
      </trkpt>
      <trkpt lat="43.54949" lon="5.89238">
        <ele>416</ele>
        <time>2016-06-05T05:57:45Z</time>
      </trkpt>
      <trkpt lat="43.54969" lon="5.89235">
        <ele>416</ele>
        <time>2016-06-05T05:57:49Z</time>
      </trkpt>
      <trkpt lat="43.54988" lon="5.89236">
        <ele>416</ele>
        <time>2016-06-05T05:57:53Z</time>
      </trkpt>
      <trkpt lat="43.55008" lon="5.89241">
        <ele>416</ele>
        <time>2016-06-05T05:57:58Z</time>
      </trkpt>
      <trkpt lat="43.55026" lon="5.89249">
        <ele>416</ele>
        <time>2016-06-05T05:58:03Z</time>
      </trkpt>
      <trkpt lat="43.55043" lon="5.89257">
        <ele>415</ele>
        <time>2016-06-05T05:58:08Z</time>
      </trkpt>
      <trkpt lat="43.55061" lon="5.89265">
        <ele>414</ele>
        <time>2016-06-05T05:58:14Z</time>
      </trkpt>
      <trkpt lat="43.5508" lon="5.89273">
        <ele>414</ele>
        <time>2016-06-05T05:58:21Z</time>
      </trkpt>
      <trkpt lat="43.55099" lon="5.89281">
        <ele>417</ele>
        <time>2016-06-05T05:58:28Z</time>
      </trkpt>
      <trkpt lat="43.55119" lon="5.8929">
        <ele>418</ele>
        <time>2016-06-05T05:58:35Z</time>
      </trkpt>
      <trkpt lat="43.55136" lon="5.89297">
        <ele>418</ele>
        <time>2016-06-05T05:58:42Z</time>
      </trkpt>
      <trkpt lat="43.55155" lon="5.89308">
        <ele>419</ele>
        <time>2016-06-05T05:58:51Z</time>
      </trkpt>
      <trkpt lat="43.55173" lon="5.89321">
        <ele>424</ele>
        <time>2016-06-05T05:58:59Z</time>
      </trkpt>
      <trkpt lat="43.55191" lon="5.89332">
        <ele>425</ele>
        <time>2016-06-05T05:59:08Z</time>
      </trkpt>
      <trkpt lat="43.55209" lon="5.8934">
        <ele>426</ele>
        <time>2016-06-05T05:59:17Z</time>
      </trkpt>
      <trkpt lat="43.55228" lon="5.89346">
        <ele>428</ele>
        <time>2016-06-05T05:59:27Z</time>
      </trkpt>
      <trkpt lat="43.55246" lon="5.89345">
        <ele>429</ele>
        <time>2016-06-05T05:59:36Z</time>
      </trkpt>
      <trkpt lat="43.55265" lon="5.89347">
        <ele>432</ele>
        <time>2016-06-05T05:59:47Z</time>
      </trkpt>
      <trkpt lat="43.55283" lon="5.89351">
        <ele>432</ele>
        <time>2016-06-05T05:59:56Z</time>
      </trkpt>
      <trkpt lat="43.55302" lon="5.89345">
        <ele>433</ele>
        <time>2016-06-05T06:00:07Z</time>
      </trkpt>
      <trkpt lat="43.5532" lon="5.89336">
        <ele>434</ele>
        <time>2016-06-05T06:00:19Z</time>
      </trkpt>
      <trkpt lat="43.55339" lon="5.89327">
        <ele>438</ele>
        <time>2016-06-05T06:00:32Z</time>
      </trkpt>
      <trkpt lat="43.55358" lon="5.89321">
        <ele>440</ele>
        <time>2016-06-05T06:00:43Z</time>
      </trkpt>
      <trkpt lat="43.55376" lon="5.89316">
        <ele>441</ele>
        <time>2016-06-05T06:00:53Z</time>
      </trkpt>
      <trkpt lat="43.55396" lon="5.89308">
        <ele>442</ele>
        <time>2016-06-05T06:01:04Z</time>
      </trkpt>
      <trkpt lat="43.55413" lon="5.89301">
        <ele>442</ele>
        <time>2016-06-05T06:01:13Z</time>
      </trkpt>
      <trkpt lat="43.55432" lon="5.89293">
        <ele>443</ele>
        <time>2016-06-05T06:01:21Z</time>
      </trkpt>
      <trkpt lat="43.5545" lon="5.89285">
        <ele>444</ele>
        <time>2016-06-05T06:01:29Z</time>
      </trkpt>
      <trkpt lat="43.55469" lon="5.89279">
        <ele>443</ele>
        <time>2016-06-05T06:01:36Z</time>
      </trkpt>
      <trkpt lat="43.55489" lon="5.8927">
        <ele>443</ele>
        <time>2016-06-05T06:01:43Z</time>
      </trkpt>
      <trkpt lat="43.55508" lon="5.89262">
        <ele>443</ele>
        <time>2016-06-05T06:01:50Z</time>
      </trkpt>
      <trkpt lat="43.55528" lon="5.89255">
        <ele>443</ele>
        <time>2016-06-05T06:01:57Z</time>
      </trkpt>
      <trkpt lat="43.55547" lon="5.89247">
        <ele>444</ele>
        <time>2016-06-05T06:02:04Z</time>
      </trkpt>
      <trkpt lat="43.55563" lon="5.89232">
        <ele>444</ele>
        <time>2016-06-05T06:02:10Z</time>
      </trkpt>
      <trkpt lat="43.55583" lon="5.89223">
        <ele>444</ele>
        <time>2016-06-05T06:02:16Z</time>
      </trkpt>
      <trkpt lat="43.55601" lon="5.89211">
        <ele>445</ele>
        <time>2016-06-05T06:02:21Z</time>
      </trkpt>
      <trkpt lat="43.5562" lon="5.89202">
        <ele>446</ele>
        <time>2016-06-05T06:02:26Z</time>
      </trkpt>
      <trkpt lat="43.5564" lon="5.89197">
        <ele>446</ele>
        <time>2016-06-05T06:02:32Z</time>
      </trkpt>
      <trkpt lat="43.55659" lon="5.8919">
        <ele>447</ele>
        <time>2016-06-05T06:02:40Z</time>
      </trkpt>
      <trkpt lat="43.55678" lon="5.89179">
        <ele>449</ele>
        <time>2016-06-05T06:02:47Z</time>
      </trkpt>
      <trkpt lat="43.55694" lon="5.8917">
        <ele>449</ele>
        <time>2016-06-05T06:02:54Z</time>
      </trkpt>
      <trkpt lat="43.55712" lon="5.89162">
        <ele>449</ele>
        <time>2016-06-05T06:03:00Z</time>
      </trkpt>
      <trkpt lat="43.5573" lon="5.8915">
        <ele>449</ele>
        <time>2016-06-05T06:03:07Z</time>
      </trkpt>
      <trkpt lat="43.55748" lon="5.89141">
        <ele>450</ele>
        <time>2016-06-05T06:03:14Z</time>
      </trkpt>
      <trkpt lat="43.55766" lon="5.89133">
        <ele>451</ele>
        <time>2016-06-05T06:03:21Z</time>
      </trkpt>
      <trkpt lat="43.55785" lon="5.89124">
        <ele>451</ele>
        <time>2016-06-05T06:03:28Z</time>
      </trkpt>
      <trkpt lat="43.55804" lon="5.89115">
        <ele>452</ele>
        <time>2016-06-05T06:03:35Z</time>
      </trkpt>
      <trkpt lat="43.55823" lon="5.8911">
        <ele>452</ele>
        <time>2016-06-05T06:03:41Z</time>
      </trkpt>
      <trkpt lat="43.55841" lon="5.89101">
        <ele>453</ele>
        <time>2016-06-05T06:03:48Z</time>
      </trkpt>
      <trkpt lat="43.55859" lon="5.89089">
        <ele>454</ele>
        <time>2016-06-05T06:03:55Z</time>
      </trkpt>
      <trkpt lat="43.55876" lon="5.8908">
        <ele>453</ele>
        <time>2016-06-05T06:04:01Z</time>
      </trkpt>
      <trkpt lat="43.55896" lon="5.89071">
        <ele>454</ele>
        <time>2016-06-05T06:04:07Z</time>
      </trkpt>
      <trkpt lat="43.55915" lon="5.89064">
        <ele>454</ele>
        <time>2016-06-05T06:04:13Z</time>
      </trkpt>
      <trkpt lat="43.55933" lon="5.89056">
        <ele>456</ele>
        <time>2016-06-05T06:04:20Z</time>
      </trkpt>
      <trkpt lat="43.5595" lon="5.89047">
        <ele>456</ele>
        <time>2016-06-05T06:04:26Z</time>
      </trkpt>
      <trkpt lat="43.55968" lon="5.89037">
        <ele>456</ele>
        <time>2016-06-05T06:04:32Z</time>
      </trkpt>
      <trkpt lat="43.55987" lon="5.89027">
        <ele>457</ele>
        <time>2016-06-05T06:04:39Z</time>
      </trkpt>
      <trkpt lat="43.56005" lon="5.89017">
        <ele>459</ele>
        <time>2016-06-05T06:04:46Z</time>
      </trkpt>
      <trkpt lat="43.56024" lon="5.89008">
        <ele>459</ele>
        <time>2016-06-05T06:04:53Z</time>
      </trkpt>
      <trkpt lat="43.56044" lon="5.88998">
        <ele>460</ele>
        <time>2016-06-05T06:05:00Z</time>
      </trkpt>
      <trkpt lat="43.56063" lon="5.88987">
        <ele>460</ele>
        <time>2016-06-05T06:05:07Z</time>
      </trkpt>
      <trkpt lat="43.56081" lon="5.88976">
        <ele>461</ele>
        <time>2016-06-05T06:05:14Z</time>
      </trkpt>
      <trkpt lat="43.561" lon="5.88969">
        <ele>463</ele>
        <time>2016-06-05T06:05:20Z</time>
      </trkpt>
      <trkpt lat="43.56116" lon="5.88955">
        <ele>463</ele>
        <time>2016-06-05T06:05:26Z</time>
      </trkpt>
      <trkpt lat="43.56129" lon="5.88938">
        <ele>464</ele>
        <time>2016-06-05T06:05:32Z</time>
      </trkpt>
      <trkpt lat="43.56146" lon="5.88922">
        <ele>464</ele>
        <time>2016-06-05T06:05:39Z</time>
      </trkpt>
      <trkpt lat="43.56162" lon="5.8891">
        <ele>465</ele>
        <time>2016-06-05T06:05:46Z</time>
      </trkpt>
      <trkpt lat="43.5618" lon="5.88899">
        <ele>466</ele>
        <time>2016-06-05T06:05:53Z</time>
      </trkpt>
      <trkpt lat="43.56196" lon="5.88883">
        <ele>466</ele>
        <time>2016-06-05T06:06:00Z</time>
      </trkpt>
      <trkpt lat="43.5621" lon="5.88867">
        <ele>466</ele>
        <time>2016-06-05T06:06:06Z</time>
      </trkpt>
      <trkpt lat="43.56225" lon="5.88849">
        <ele>467</ele>
        <time>2016-06-05T06:06:13Z</time>
      </trkpt>
      <trkpt lat="43.56239" lon="5.88832">
        <ele>467</ele>
        <time>2016-06-05T06:06:20Z</time>
      </trkpt>
      <trkpt lat="43.56253" lon="5.88817">
        <ele>469</ele>
        <time>2016-06-05T06:06:27Z</time>
      </trkpt>
      <trkpt lat="43.56269" lon="5.88802">
        <ele>469</ele>
        <time>2016-06-05T06:06:34Z</time>
      </trkpt>
      <trkpt lat="43.56284" lon="5.88788">
        <ele>469</ele>
        <time>2016-06-05T06:06:41Z</time>
      </trkpt>
      <trkpt lat="43.56299" lon="5.88772">
        <ele>470</ele>
        <time>2016-06-05T06:06:48Z</time>
      </trkpt>
      <trkpt lat="43.56314" lon="5.88754">
        <ele>471</ele>
        <time>2016-06-05T06:06:55Z</time>
      </trkpt>
      <trkpt lat="43.56326" lon="5.88734">
        <ele>471</ele>
        <time>2016-06-05T06:07:02Z</time>
      </trkpt>
      <trkpt lat="43.56338" lon="5.88714">
        <ele>474</ele>
        <time>2016-06-05T06:07:09Z</time>
      </trkpt>
      <trkpt lat="43.56352" lon="5.88697">
        <ele>474</ele>
        <time>2016-06-05T06:07:49Z</time>
      </trkpt>
      <trkpt lat="43.56368" lon="5.88686">
        <ele>475</ele>
        <time>2016-06-05T06:10:42Z</time>
      </trkpt>
      <trkpt lat="43.56385" lon="5.88675">
        <ele>475</ele>
        <time>2016-06-05T06:10:51Z</time>
      </trkpt>
      <trkpt lat="43.56403" lon="5.88668">
        <ele>476</ele>
        <time>2016-06-05T06:10:59Z</time>
      </trkpt>
      <trkpt lat="43.56423" lon="5.88665">
        <ele>477</ele>
        <time>2016-06-05T06:11:07Z</time>
      </trkpt>
      <trkpt lat="43.56441" lon="5.88659">
        <ele>477</ele>
        <time>2016-06-05T06:11:14Z</time>
      </trkpt>
      <trkpt lat="43.56459" lon="5.88645">
        <ele>476</ele>
        <time>2016-06-05T06:11:21Z</time>
      </trkpt>
      <trkpt lat="43.56475" lon="5.8863">
        <ele>476</ele>
        <time>2016-06-05T06:11:26Z</time>
      </trkpt>
      <trkpt lat="43.56491" lon="5.8862">
        <ele>476</ele>
        <time>2016-06-05T06:11:31Z</time>
      </trkpt>
      <trkpt lat="43.56511" lon="5.88612">
        <ele>475</ele>
        <time>2016-06-05T06:11:36Z</time>
      </trkpt>
      <trkpt lat="43.56531" lon="5.88604">
        <ele>475</ele>
        <time>2016-06-05T06:11:40Z</time>
      </trkpt>
      <trkpt lat="43.56549" lon="5.88594">
        <ele>475</ele>
        <time>2016-06-05T06:11:45Z</time>
      </trkpt>
      <trkpt lat="43.56569" lon="5.88586">
        <ele>475</ele>
        <time>2016-06-05T06:11:51Z</time>
      </trkpt>
      <trkpt lat="43.56591" lon="5.88583">
        <ele>476</ele>
        <time>2016-06-05T06:11:57Z</time>
      </trkpt>
      <trkpt lat="43.5661" lon="5.88579">
        <ele>478</ele>
        <time>2016-06-05T06:12:03Z</time>
      </trkpt>
      <trkpt lat="43.5663" lon="5.88572">
        <ele>479</ele>
        <time>2016-06-05T06:12:09Z</time>
      </trkpt>
      <trkpt lat="43.56651" lon="5.88572">
        <ele>480</ele>
        <time>2016-06-05T06:12:15Z</time>
      </trkpt>
      <trkpt lat="43.5667" lon="5.88568">
        <ele>481</ele>
        <time>2016-06-05T06:12:23Z</time>
      </trkpt>
      <trkpt lat="43.56686" lon="5.88557">
        <ele>481</ele>
        <time>2016-06-05T06:12:30Z</time>
      </trkpt>
      <trkpt lat="43.56703" lon="5.88548">
        <ele>481</ele>
        <time>2016-06-05T06:12:36Z</time>
      </trkpt>
      <trkpt lat="43.56722" lon="5.88539">
        <ele>481</ele>
        <time>2016-06-05T06:12:41Z</time>
      </trkpt>
      <trkpt lat="43.56743" lon="5.88529">
        <ele>481</ele>
        <time>2016-06-05T06:12:46Z</time>
      </trkpt>
      <trkpt lat="43.56763" lon="5.88516">
        <ele>480</ele>
        <time>2016-06-05T06:12:51Z</time>
      </trkpt>
      <trkpt lat="43.56782" lon="5.88507">
        <ele>480</ele>
        <time>2016-06-05T06:12:55Z</time>
      </trkpt>
      <trkpt lat="43.56801" lon="5.88497">
        <ele>482</ele>
        <time>2016-06-05T06:13:00Z</time>
      </trkpt>
      <trkpt lat="43.56822" lon="5.88488">
        <ele>481</ele>
        <time>2016-06-05T06:13:05Z</time>
      </trkpt>
      <trkpt lat="43.56843" lon="5.88479">
        <ele>480</ele>
        <time>2016-06-05T06:13:10Z</time>
      </trkpt>
      <trkpt lat="43.56861" lon="5.88468">
        <ele>480</ele>
        <time>2016-06-05T06:13:15Z</time>
      </trkpt>
      <trkpt lat="43.56881" lon="5.88457">
        <ele>480</ele>
        <time>2016-06-05T06:13:21Z</time>
      </trkpt>
      <trkpt lat="43.56899" lon="5.88447">
        <ele>479</ele>
        <time>2016-06-05T06:13:26Z</time>
      </trkpt>
      <trkpt lat="43.56919" lon="5.88435">
        <ele>479</ele>
        <time>2016-06-05T06:13:31Z</time>
      </trkpt>
      <trkpt lat="43.56936" lon="5.88425">
        <ele>479</ele>
        <time>2016-06-05T06:13:35Z</time>
      </trkpt>
      <trkpt lat="43.56953" lon="5.88416">
        <ele>481</ele>
        <time>2016-06-05T06:13:39Z</time>
      </trkpt>
      <trkpt lat="43.5697" lon="5.88406">
        <ele>482</ele>
        <time>2016-06-05T06:13:43Z</time>
      </trkpt>
      <trkpt lat="43.56987" lon="5.88398">
        <ele>482</ele>
        <time>2016-06-05T06:13:47Z</time>
      </trkpt>
      <trkpt lat="43.57005" lon="5.88389">
        <ele>482</ele>
        <time>2016-06-05T06:13:51Z</time>
      </trkpt>
      <trkpt lat="43.57025" lon="5.88378">
        <ele>483</ele>
        <time>2016-06-05T06:13:56Z</time>
      </trkpt>
      <trkpt lat="43.57045" lon="5.88368">
        <ele>483</ele>
        <time>2016-06-05T06:14:01Z</time>
      </trkpt>
      <trkpt lat="43.57063" lon="5.88355">
        <ele>484</ele>
        <time>2016-06-05T06:14:06Z</time>
      </trkpt>
      <trkpt lat="43.57082" lon="5.88342">
        <ele>484</ele>
        <time>2016-06-05T06:14:11Z</time>
      </trkpt>
      <trkpt lat="43.57101" lon="5.88333">
        <ele>486</ele>
        <time>2016-06-05T06:14:16Z</time>
      </trkpt>
      <trkpt lat="43.57119" lon="5.88321">
        <ele>486</ele>
        <time>2016-06-05T06:14:21Z</time>
      </trkpt>
      <trkpt lat="43.57136" lon="5.8831">
        <ele>487</ele>
        <time>2016-06-05T06:14:26Z</time>
      </trkpt>
      <trkpt lat="43.57154" lon="5.88303">
        <ele>487</ele>
        <time>2016-06-05T06:14:31Z</time>
      </trkpt>
      <trkpt lat="43.57173" lon="5.88297">
        <ele>488</ele>
        <time>2016-06-05T06:14:36Z</time>
      </trkpt>
      <trkpt lat="43.57193" lon="5.88293">
        <ele>488</ele>
        <time>2016-06-05T06:14:41Z</time>
      </trkpt>
      <trkpt lat="43.57213" lon="5.88288">
        <ele>488</ele>
        <time>2016-06-05T06:14:46Z</time>
      </trkpt>
      <trkpt lat="43.57233" lon="5.88281">
        <ele>488</ele>
        <time>2016-06-05T06:14:52Z</time>
      </trkpt>
      <trkpt lat="43.57252" lon="5.88278">
        <ele>490</ele>
        <time>2016-06-05T06:14:59Z</time>
      </trkpt>
      <trkpt lat="43.57271" lon="5.88271">
        <ele>491</ele>
        <time>2016-06-05T06:15:06Z</time>
      </trkpt>
      <trkpt lat="43.5729" lon="5.88261">
        <ele>492</ele>
        <time>2016-06-05T06:15:13Z</time>
      </trkpt>
      <trkpt lat="43.57308" lon="5.88253">
        <ele>492</ele>
        <time>2016-06-05T06:15:19Z</time>
      </trkpt>
      <trkpt lat="43.57326" lon="5.88245">
        <ele>494</ele>
        <time>2016-06-05T06:15:25Z</time>
      </trkpt>
      <trkpt lat="43.57344" lon="5.88235">
        <ele>496</ele>
        <time>2016-06-05T06:15:32Z</time>
      </trkpt>
      <trkpt lat="43.57361" lon="5.88227">
        <ele>498</ele>
        <time>2016-06-05T06:15:38Z</time>
      </trkpt>
      <trkpt lat="43.57379" lon="5.88221">
        <ele>499</ele>
        <time>2016-06-05T06:15:45Z</time>
      </trkpt>
      <trkpt lat="43.57397" lon="5.88214">
        <ele>499</ele>
        <time>2016-06-05T06:15:52Z</time>
      </trkpt>
      <trkpt lat="43.57415" lon="5.882">
        <ele>500</ele>
        <time>2016-06-05T06:16:00Z</time>
      </trkpt>
      <trkpt lat="43.57431" lon="5.88184">
        <ele>505</ele>
        <time>2016-06-05T06:16:07Z</time>
      </trkpt>
      <trkpt lat="43.57448" lon="5.88171">
        <ele>506</ele>
        <time>2016-06-05T06:16:14Z</time>
      </trkpt>
      <trkpt lat="43.57464" lon="5.88159">
        <ele>507</ele>
        <time>2016-06-05T06:16:21Z</time>
      </trkpt>
      <trkpt lat="43.57482" lon="5.88148">
        <ele>508</ele>
        <time>2016-06-05T06:16:29Z</time>
      </trkpt>
      <trkpt lat="43.57499" lon="5.88137">
        <ele>508</ele>
        <time>2016-06-05T06:16:37Z</time>
      </trkpt>
      <trkpt lat="43.57517" lon="5.88125">
        <ele>513</ele>
        <time>2016-06-05T06:16:45Z</time>
      </trkpt>
      <trkpt lat="43.57532" lon="5.88107">
        <ele>513</ele>
        <time>2016-06-05T06:16:53Z</time>
      </trkpt>
      <trkpt lat="43.57541" lon="5.88084">
        <ele>514</ele>
        <time>2016-06-05T06:17:00Z</time>
      </trkpt>
      <trkpt lat="43.5755" lon="5.88059">
        <ele>515</ele>
        <time>2016-06-05T06:17:08Z</time>
      </trkpt>
      <trkpt lat="43.57561" lon="5.88037">
        <ele>515</ele>
        <time>2016-06-05T06:17:16Z</time>
      </trkpt>
      <trkpt lat="43.57574" lon="5.88019">
        <ele>515</ele>
        <time>2016-06-05T06:17:25Z</time>
      </trkpt>
      <trkpt lat="43.5759" lon="5.88003">
        <ele>516</ele>
        <time>2016-06-05T06:17:36Z</time>
      </trkpt>
      <trkpt lat="43.57605" lon="5.87988">
        <ele>518</ele>
        <time>2016-06-05T06:17:46Z</time>
      </trkpt>
      <trkpt lat="43.57621" lon="5.87973">
        <ele>518</ele>
        <time>2016-06-05T06:17:55Z</time>
      </trkpt>
      <trkpt lat="43.57636" lon="5.87958">
        <ele>519</ele>
        <time>2016-06-05T06:18:04Z</time>
      </trkpt>
      <trkpt lat="43.57653" lon="5.87947">
        <ele>519</ele>
        <time>2016-06-05T06:18:12Z</time>
      </trkpt>
      <trkpt lat="43.57672" lon="5.87937">
        <ele>518</ele>
        <time>2016-06-05T06:18:20Z</time>
      </trkpt>
      <trkpt lat="43.57689" lon="5.87928">
        <ele>518</ele>
        <time>2016-06-05T06:18:28Z</time>
      </trkpt>
      <trkpt lat="43.57707" lon="5.8793">
        <ele>519</ele>
        <time>2016-06-05T06:18:37Z</time>
      </trkpt>
      <trkpt lat="43.57725" lon="5.87942">
        <ele>519</ele>
        <time>2016-06-05T06:18:45Z</time>
      </trkpt>
      <trkpt lat="43.5774" lon="5.87958">
        <ele>519</ele>
        <time>2016-06-05T06:18:52Z</time>
      </trkpt>
      <trkpt lat="43.57751" lon="5.8798">
        <ele>519</ele>
        <time>2016-06-05T06:18:59Z</time>
      </trkpt>
      <trkpt lat="43.57758" lon="5.88006">
        <ele>520</ele>
        <time>2016-06-05T06:19:06Z</time>
      </trkpt>
      <trkpt lat="43.57767" lon="5.8803">
        <ele>519</ele>
        <time>2016-06-05T06:19:13Z</time>
      </trkpt>
      <trkpt lat="43.57778" lon="5.88051">
        <ele>519</ele>
        <time>2016-06-05T06:19:21Z</time>
      </trkpt>
      <trkpt lat="43.57773" lon="5.88078">
        <ele>520</ele>
        <time>2016-06-05T06:21:14Z</time>
      </trkpt>
      <trkpt lat="43.57765" lon="5.88102">
        <ele>522</ele>
        <time>2016-06-05T06:21:22Z</time>
      </trkpt>
      <trkpt lat="43.57758" lon="5.88126">
        <ele>522</ele>
        <time>2016-06-05T06:21:30Z</time>
      </trkpt>
      <trkpt lat="43.57753" lon="5.88151">
        <ele>524</ele>
        <time>2016-06-05T06:21:40Z</time>
      </trkpt>
      <trkpt lat="43.57751" lon="5.88177">
        <ele>526</ele>
        <time>2016-06-05T06:21:50Z</time>
      </trkpt>
      <trkpt lat="43.57743" lon="5.882">
        <ele>528</ele>
        <time>2016-06-05T06:21:59Z</time>
      </trkpt>
      <trkpt lat="43.57741" lon="5.88215">
        <ele>528</ele>
      </trkpt>
      <trkpt lat="43.57745" lon="5.88237">
        <ele>528</ele>
        <time>2016-06-05T06:24:28Z</time>
      </trkpt>
      <trkpt lat="43.57742" lon="5.88262">
        <ele>527</ele>
        <time>2016-06-05T06:25:01Z</time>
      </trkpt>
      <trkpt lat="43.57744" lon="5.88289">
        <ele>526</ele>
        <time>2016-06-05T06:25:20Z</time>
      </trkpt>
      <trkpt lat="43.57753" lon="5.88314">
        <ele>528</ele>
        <time>2016-06-05T06:25:29Z</time>
      </trkpt>
      <trkpt lat="43.57752" lon="5.88341">
        <ele>529</ele>
        <time>2016-06-05T06:25:37Z</time>
      </trkpt>
      <trkpt lat="43.57748" lon="5.88368">
        <ele>527</ele>
        <time>2016-06-05T06:25:45Z</time>
      </trkpt>
      <trkpt lat="43.57734" lon="5.88384">
        <ele>527</ele>
        <time>2016-06-05T06:25:54Z</time>
      </trkpt>
      <trkpt lat="43.57722" lon="5.88406">
        <ele>527</ele>
        <time>2016-06-05T06:26:03Z</time>
      </trkpt>
      <trkpt lat="43.57704" lon="5.88413">
        <ele>525</ele>
        <time>2016-06-05T06:26:11Z</time>
      </trkpt>
      <trkpt lat="43.57686" lon="5.88427">
        <ele>526</ele>
        <time>2016-06-05T06:26:19Z</time>
      </trkpt>
      <trkpt lat="43.57673" lon="5.88446">
        <ele>526</ele>
        <time>2016-06-05T06:26:27Z</time>
      </trkpt>
      <trkpt lat="43.57674" lon="5.88472">
        <ele>528</ele>
        <time>2016-06-05T06:26:37Z</time>
      </trkpt>
      <trkpt lat="43.57681" lon="5.88497">
        <ele>528</ele>
        <time>2016-06-05T06:26:46Z</time>
      </trkpt>
      <trkpt lat="43.57687" lon="5.88523">
        <ele>531</ele>
        <time>2016-06-05T06:26:55Z</time>
      </trkpt>
      <trkpt lat="43.57684" lon="5.88548">
        <ele>532</ele>
        <time>2016-06-05T06:27:03Z</time>
      </trkpt>
      <trkpt lat="43.57684" lon="5.88576">
        <ele>532</ele>
        <time>2016-06-05T06:27:12Z</time>
      </trkpt>
      <trkpt lat="43.57676" lon="5.886">
        <ele>533</ele>
        <time>2016-06-05T06:27:21Z</time>
      </trkpt>
      <trkpt lat="43.57687" lon="5.88621">
        <ele>535</ele>
        <time>2016-06-05T06:27:29Z</time>
      </trkpt>
      <trkpt lat="43.57702" lon="5.88635">
        <ele>536</ele>
        <time>2016-06-05T06:27:38Z</time>
      </trkpt>
      <trkpt lat="43.57702" lon="5.88662">
        <ele>537</ele>
        <time>2016-06-05T06:27:47Z</time>
      </trkpt>
      <trkpt lat="43.57691" lon="5.88684">
        <ele>537</ele>
        <time>2016-06-05T06:27:56Z</time>
      </trkpt>
      <trkpt lat="43.57682" lon="5.88705">
        <ele>537</ele>
        <time>2016-06-05T06:28:04Z</time>
      </trkpt>
      <trkpt lat="43.57668" lon="5.88724">
        <ele>537</ele>
        <time>2016-06-05T06:28:13Z</time>
      </trkpt>
      <trkpt lat="43.5765" lon="5.88738">
        <ele>535</ele>
        <time>2016-06-05T06:28:20Z</time>
      </trkpt>
      <trkpt lat="43.57633" lon="5.88746">
        <ele>535</ele>
        <time>2016-06-05T06:28:27Z</time>
      </trkpt>
      <trkpt lat="43.57618" lon="5.88759">
        <ele>535</ele>
        <time>2016-06-05T06:28:40Z</time>
      </trkpt>
      <trkpt lat="43.57611" lon="5.88784">
        <ele>534</ele>
        <time>2016-06-05T06:28:53Z</time>
      </trkpt>
      <trkpt lat="43.57604" lon="5.88808">
        <ele>534</ele>
        <time>2016-06-05T06:29:02Z</time>
      </trkpt>
      <trkpt lat="43.576" lon="5.88833">
        <ele>534</ele>
        <time>2016-06-05T06:29:11Z</time>
      </trkpt>
      <trkpt lat="43.57589" lon="5.88853">
        <ele>532</ele>
        <time>2016-06-05T06:29:20Z</time>
      </trkpt>
      <trkpt lat="43.57572" lon="5.88867">
        <ele>532</ele>
        <time>2016-06-05T06:29:30Z</time>
      </trkpt>
      <trkpt lat="43.57555" lon="5.88877">
        <ele>532</ele>
        <time>2016-06-05T06:29:39Z</time>
      </trkpt>
      <trkpt lat="43.57539" lon="5.8889">
        <ele>533</ele>
        <time>2016-06-05T06:29:48Z</time>
      </trkpt>
      <trkpt lat="43.57524" lon="5.88907">
        <ele>533</ele>
        <time>2016-06-05T06:29:58Z</time>
      </trkpt>
      <trkpt lat="43.57504" lon="5.88907">
        <ele>533</ele>
        <time>2016-06-05T06:30:06Z</time>
      </trkpt>
      <trkpt lat="43.57485" lon="5.88912">
        <ele>532</ele>
        <time>2016-06-05T06:30:14Z</time>
      </trkpt>
      <trkpt lat="43.57465" lon="5.88915">
        <ele>532</ele>
        <time>2016-06-05T06:30:23Z</time>
      </trkpt>
      <trkpt lat="43.57448" lon="5.88909">
        <ele>531</ele>
        <time>2016-06-05T06:30:30Z</time>
      </trkpt>
      <trkpt lat="43.57428" lon="5.88904">
        <ele>530</ele>
        <time>2016-06-05T06:30:36Z</time>
      </trkpt>
      <trkpt lat="43.57409" lon="5.88897">
        <ele>527</ele>
        <time>2016-06-05T06:30:41Z</time>
      </trkpt>
      <trkpt lat="43.57392" lon="5.88887">
        <ele>526</ele>
        <time>2016-06-05T06:30:46Z</time>
      </trkpt>
      <trkpt lat="43.57373" lon="5.88884">
        <ele>525</ele>
        <time>2016-06-05T06:30:52Z</time>
      </trkpt>
      <trkpt lat="43.57352" lon="5.88886">
        <ele>524</ele>
        <time>2016-06-05T06:30:59Z</time>
      </trkpt>
      <trkpt lat="43.57334" lon="5.88893">
        <ele>523</ele>
        <time>2016-06-05T06:31:04Z</time>
      </trkpt>
      <trkpt lat="43.57316" lon="5.88889">
        <ele>518</ele>
        <time>2016-06-05T06:31:10Z</time>
      </trkpt>
      <trkpt lat="43.57296" lon="5.88895">
        <ele>517</ele>
        <time>2016-06-05T06:31:15Z</time>
      </trkpt>
      <trkpt lat="43.5728" lon="5.88887">
        <ele>517</ele>
      </trkpt>
      <trkpt lat="43.57279" lon="5.88865">
        <ele>517</ele>
        <time>2016-06-05T06:38:30Z</time>
      </trkpt>
      <trkpt lat="43.57273" lon="5.88841">
        <ele>517</ele>
        <time>2016-06-05T06:38:41Z</time>
      </trkpt>
      <trkpt lat="43.57269" lon="5.88815">
        <ele>517</ele>
        <time>2016-06-05T06:38:51Z</time>
      </trkpt>
      <trkpt lat="43.57266" lon="5.88788">
        <ele>518</ele>
        <time>2016-06-05T06:39:00Z</time>
      </trkpt>
      <trkpt lat="43.57267" lon="5.88762">
        <ele>517</ele>
        <time>2016-06-05T06:39:09Z</time>
      </trkpt>
      <trkpt lat="43.57264" lon="5.88736">
        <ele>517</ele>
        <time>2016-06-05T06:39:20Z</time>
      </trkpt>
      <trkpt lat="43.5726" lon="5.88709">
        <ele>517</ele>
        <time>2016-06-05T06:39:28Z</time>
      </trkpt>
      <trkpt lat="43.57262" lon="5.88683">
        <ele>516</ele>
        <time>2016-06-05T06:39:36Z</time>
      </trkpt>
      <trkpt lat="43.57267" lon="5.88657">
        <ele>514</ele>
        <time>2016-06-05T06:39:49Z</time>
      </trkpt>
      <trkpt lat="43.57271" lon="5.8863">
        <ele>514</ele>
        <time>2016-06-05T06:39:58Z</time>
      </trkpt>
      <trkpt lat="43.57275" lon="5.88604">
        <ele>513</ele>
        <time>2016-06-05T06:40:07Z</time>
      </trkpt>
      <trkpt lat="43.57278" lon="5.88579">
        <ele>510</ele>
        <time>2016-06-05T06:40:15Z</time>
      </trkpt>
      <trkpt lat="43.57282" lon="5.88553">
        <ele>509</ele>
        <time>2016-06-05T06:40:23Z</time>
      </trkpt>
      <trkpt lat="43.57291" lon="5.8853">
        <ele>509</ele>
        <time>2016-06-05T06:40:30Z</time>
      </trkpt>
      <trkpt lat="43.57298" lon="5.88504">
        <ele>508</ele>
        <time>2016-06-05T06:40:38Z</time>
      </trkpt>
      <trkpt lat="43.57305" lon="5.8848">
        <ele>505</ele>
        <time>2016-06-05T06:40:46Z</time>
      </trkpt>
      <trkpt lat="43.5731" lon="5.88456">
        <ele>504</ele>
        <time>2016-06-05T06:40:55Z</time>
      </trkpt>
      <trkpt lat="43.57324" lon="5.88438">
        <ele>503</ele>
        <time>2016-06-05T06:41:03Z</time>
      </trkpt>
      <trkpt lat="43.57332" lon="5.88414">
        <ele>502</ele>
        <time>2016-06-05T06:41:12Z</time>
      </trkpt>
      <trkpt lat="43.57328" lon="5.88388">
        <ele>499</ele>
        <time>2016-06-05T06:41:22Z</time>
      </trkpt>
      <trkpt lat="43.57324" lon="5.88363">
        <ele>497</ele>
        <time>2016-06-05T06:41:30Z</time>
      </trkpt>
      <trkpt lat="43.57333" lon="5.88341">
        <ele>496</ele>
        <time>2016-06-05T06:41:36Z</time>
      </trkpt>
      <trkpt lat="43.57332" lon="5.88313">
        <ele>494</ele>
        <time>2016-06-05T06:41:46Z</time>
      </trkpt>
      <trkpt lat="43.57334" lon="5.88285">
        <ele>497</ele>
        <time>2016-06-05T06:41:55Z</time>
      </trkpt>
      <trkpt lat="43.57336" lon="5.88258">
        <ele>495</ele>
        <time>2016-06-05T06:42:01Z</time>
      </trkpt>
      <trkpt lat="43.57342" lon="5.88234">
        <ele>496</ele>
        <time>2016-06-05T06:42:08Z</time>
      </trkpt>
      <trkpt lat="43.5733" lon="5.88215">
        <ele>493</ele>
        <time>2016-06-05T06:42:17Z</time>
      </trkpt>
      <trkpt lat="43.5732" lon="5.88189">
        <ele>493</ele>
        <time>2016-06-05T06:42:27Z</time>
      </trkpt>
      <trkpt lat="43.57316" lon="5.88163">
        <ele>494</ele>
        <time>2016-06-05T06:42:34Z</time>
      </trkpt>
      <trkpt lat="43.57315" lon="5.88138">
        <ele>494</ele>
        <time>2016-06-05T06:42:40Z</time>
      </trkpt>
      <trkpt lat="43.57314" lon="5.88113">
        <ele>494</ele>
        <time>2016-06-05T06:42:47Z</time>
      </trkpt>
      <trkpt lat="43.5731" lon="5.88088">
        <ele>494</ele>
        <time>2016-06-05T06:42:55Z</time>
      </trkpt>
      <trkpt lat="43.57306" lon="5.88062">
        <ele>495</ele>
        <time>2016-06-05T06:43:05Z</time>
      </trkpt>
      <trkpt lat="43.57299" lon="5.88038">
        <ele>495</ele>
        <time>2016-06-05T06:43:12Z</time>
      </trkpt>
      <trkpt lat="43.57286" lon="5.88018">
        <ele>495</ele>
        <time>2016-06-05T06:43:21Z</time>
      </trkpt>
      <trkpt lat="43.57278" lon="5.87994">
        <ele>497</ele>
        <time>2016-06-05T06:43:33Z</time>
      </trkpt>
      <trkpt lat="43.57272" lon="5.8797">
        <ele>497</ele>
        <time>2016-06-05T06:43:45Z</time>
      </trkpt>
      <trkpt lat="43.57268" lon="5.87937">
        <ele>498</ele>
        <time>2016-06-05T06:44:17Z</time>
      </trkpt>
      <trkpt lat="43.57268" lon="5.87911">
        <ele>500</ele>
        <time>2016-06-05T06:44:29Z</time>
      </trkpt>
      <trkpt lat="43.57268" lon="5.87886">
        <ele>501</ele>
        <time>2016-06-05T06:44:40Z</time>
      </trkpt>
      <trkpt lat="43.57268" lon="5.8786">
        <ele>502</ele>
        <time>2016-06-05T06:44:51Z</time>
      </trkpt>
      <trkpt lat="43.57254" lon="5.87841">
        <ele>503</ele>
        <time>2016-06-05T06:45:02Z</time>
      </trkpt>
      <trkpt lat="43.5724" lon="5.87822">
        <ele>504</ele>
        <time>2016-06-05T06:45:13Z</time>
      </trkpt>
      <trkpt lat="43.57228" lon="5.87804">
        <ele>504</ele>
        <time>2016-06-05T06:45:23Z</time>
      </trkpt>
      <trkpt lat="43.57219" lon="5.87779">
        <ele>504</ele>
        <time>2016-06-05T06:45:32Z</time>
      </trkpt>
      <trkpt lat="43.57205" lon="5.87761">
        <ele>504</ele>
        <time>2016-06-05T06:45:40Z</time>
      </trkpt>
      <trkpt lat="43.57191" lon="5.87744">
        <ele>504</ele>
        <time>2016-06-05T06:45:49Z</time>
      </trkpt>
      <trkpt lat="43.57178" lon="5.8772">
        <ele>504</ele>
        <time>2016-06-05T06:48:17Z</time>
      </trkpt>
      <trkpt lat="43.57182" lon="5.87694">
        <ele>505</ele>
        <time>2016-06-05T06:48:27Z</time>
      </trkpt>
      <trkpt lat="43.57181" lon="5.87669">
        <ele>504</ele>
        <time>2016-06-05T06:48:36Z</time>
      </trkpt>
      <trkpt lat="43.57176" lon="5.87643">
        <ele>504</ele>
        <time>2016-06-05T06:48:45Z</time>
      </trkpt>
      <trkpt lat="43.57174" lon="5.87616">
        <ele>503</ele>
        <time>2016-06-05T06:48:53Z</time>
      </trkpt>
      <trkpt lat="43.5717" lon="5.8759">
        <ele>502</ele>
        <time>2016-06-05T06:49:00Z</time>
      </trkpt>
      <trkpt lat="43.57161" lon="5.87564">
        <ele>502</ele>
        <time>2016-06-05T06:49:07Z</time>
      </trkpt>
      <trkpt lat="43.57151" lon="5.8754">
        <ele>502</ele>
        <time>2016-06-05T06:49:14Z</time>
      </trkpt>
      <trkpt lat="43.57143" lon="5.87518">
        <ele>502</ele>
        <time>2016-06-05T06:49:21Z</time>
      </trkpt>
      <trkpt lat="43.5713" lon="5.87496">
        <ele>502</ele>
        <time>2016-06-05T06:49:28Z</time>
      </trkpt>
      <trkpt lat="43.57121" lon="5.87475">
        <ele>502</ele>
        <time>2016-06-05T06:49:35Z</time>
      </trkpt>
      <trkpt lat="43.57104" lon="5.87463">
        <ele>502</ele>
        <time>2016-06-05T06:49:44Z</time>
      </trkpt>
      <trkpt lat="43.57088" lon="5.87446">
        <ele>501</ele>
        <time>2016-06-05T06:49:51Z</time>
      </trkpt>
      <trkpt lat="43.57075" lon="5.8743">
        <ele>502</ele>
        <time>2016-06-05T06:49:58Z</time>
      </trkpt>
      <trkpt lat="43.57059" lon="5.87413">
        <ele>502</ele>
        <time>2016-06-05T06:50:04Z</time>
      </trkpt>
      <trkpt lat="43.57046" lon="5.87394">
        <ele>503</ele>
        <time>2016-06-05T06:50:21Z</time>
      </trkpt>
      <trkpt lat="43.57037" lon="5.87372">
        <ele>503</ele>
        <time>2016-06-05T06:50:49Z</time>
      </trkpt>
      <trkpt lat="43.57024" lon="5.87353">
        <ele>503</ele>
        <time>2016-06-05T06:51:23Z</time>
      </trkpt>
      <trkpt lat="43.57016" lon="5.87331">
        <ele>502</ele>
        <time>2016-06-05T06:51:41Z</time>
      </trkpt>
      <trkpt lat="43.57009" lon="5.87307">
        <ele>502</ele>
        <time>2016-06-05T06:51:50Z</time>
      </trkpt>
      <trkpt lat="43.57004" lon="5.87283">
        <ele>501</ele>
        <time>2016-06-05T06:51:57Z</time>
      </trkpt>
      <trkpt lat="43.56998" lon="5.87259">
        <ele>499</ele>
        <time>2016-06-05T06:52:04Z</time>
      </trkpt>
      <trkpt lat="43.56995" lon="5.87233">
        <ele>497</ele>
        <time>2016-06-05T06:52:11Z</time>
      </trkpt>
      <trkpt lat="43.5699" lon="5.87208">
        <ele>497</ele>
        <time>2016-06-05T06:52:17Z</time>
      </trkpt>
      <trkpt lat="43.56986" lon="5.87182">
        <ele>497</ele>
        <time>2016-06-05T06:52:23Z</time>
      </trkpt>
      <trkpt lat="43.56981" lon="5.87157">
        <ele>496</ele>
        <time>2016-06-05T06:52:29Z</time>
      </trkpt>
      <trkpt lat="43.56976" lon="5.87132">
        <ele>496</ele>
        <time>2016-06-05T06:52:35Z</time>
      </trkpt>
      <trkpt lat="43.56977" lon="5.87105">
        <ele>496</ele>
        <time>2016-06-05T06:52:42Z</time>
      </trkpt>
      <trkpt lat="43.56973" lon="5.87078">
        <ele>496</ele>
        <time>2016-06-05T06:52:49Z</time>
      </trkpt>
      <trkpt lat="43.56967" lon="5.8705">
        <ele>495</ele>
        <time>2016-06-05T06:52:56Z</time>
      </trkpt>
      <trkpt lat="43.56959" lon="5.87023">
        <ele>495</ele>
        <time>2016-06-05T06:53:02Z</time>
      </trkpt>
      <trkpt lat="43.5695" lon="5.86996">
        <ele>494</ele>
        <time>2016-06-05T06:53:07Z</time>
      </trkpt>
      <trkpt lat="43.56945" lon="5.86966">
        <ele>493</ele>
        <time>2016-06-05T06:53:12Z</time>
      </trkpt>
      <trkpt lat="43.56941" lon="5.86938">
        <ele>493</ele>
        <time>2016-06-05T06:53:16Z</time>
      </trkpt>
      <trkpt lat="43.56937" lon="5.86907">
        <ele>491</ele>
        <time>2016-06-05T06:53:20Z</time>
      </trkpt>
      <trkpt lat="43.56933" lon="5.86876">
        <ele>490</ele>
        <time>2016-06-05T06:53:24Z</time>
      </trkpt>
      <trkpt lat="43.56926" lon="5.8685">
        <ele>488</ele>
        <time>2016-06-05T06:54:10Z</time>
      </trkpt>
      <trkpt lat="43.5692" lon="5.86823">
        <ele>486</ele>
        <time>2016-06-05T06:54:17Z</time>
      </trkpt>
      <trkpt lat="43.56918" lon="5.86795">
        <ele>486</ele>
        <time>2016-06-05T06:54:23Z</time>
      </trkpt>
      <trkpt lat="43.56916" lon="5.86769">
        <ele>483</ele>
        <time>2016-06-05T06:54:29Z</time>
      </trkpt>
      <trkpt lat="43.5691" lon="5.86744">
        <ele>482</ele>
        <time>2016-06-05T06:54:35Z</time>
      </trkpt>
      <trkpt lat="43.56911" lon="5.86717">
        <ele>481</ele>
        <time>2016-06-05T06:54:41Z</time>
      </trkpt>
      <trkpt lat="43.56914" lon="5.86691">
        <ele>481</ele>
        <time>2016-06-05T06:54:47Z</time>
      </trkpt>
      <trkpt lat="43.56921" lon="5.86666">
        <ele>480</ele>
        <time>2016-06-05T06:54:54Z</time>
      </trkpt>
      <trkpt lat="43.56911" lon="5.86644">
        <ele>480</ele>
        <time>2016-06-05T06:55:57Z</time>
      </trkpt>
      <trkpt lat="43.56914" lon="5.86619">
        <ele>480</ele>
        <time>2016-06-05T06:56:13Z</time>
      </trkpt>
      <trkpt lat="43.56911" lon="5.86593">
        <ele>480</ele>
        <time>2016-06-05T06:56:26Z</time>
      </trkpt>
      <trkpt lat="43.56893" lon="5.86584">
        <ele>480</ele>
        <time>2016-06-05T06:56:37Z</time>
      </trkpt>
      <trkpt lat="43.56879" lon="5.86568">
        <ele>481</ele>
        <time>2016-06-05T06:56:47Z</time>
      </trkpt>
      <trkpt lat="43.56872" lon="5.86544">
        <ele>481</ele>
        <time>2016-06-05T06:56:54Z</time>
      </trkpt>
      <trkpt lat="43.56856" lon="5.86532">
        <ele>481</ele>
        <time>2016-06-05T06:56:59Z</time>
      </trkpt>
      <trkpt lat="43.56837" lon="5.86526">
        <ele>481</ele>
        <time>2016-06-05T06:57:06Z</time>
      </trkpt>
      <trkpt lat="43.56835" lon="5.865">
        <ele>481</ele>
        <time>2016-06-05T06:57:15Z</time>
      </trkpt>
      <trkpt lat="43.56841" lon="5.86475">
        <ele>482</ele>
        <time>2016-06-05T06:57:22Z</time>
      </trkpt>
      <trkpt lat="43.56848" lon="5.8645">
        <ele>482</ele>
        <time>2016-06-05T06:57:29Z</time>
      </trkpt>
      <trkpt lat="43.56851" lon="5.86424">
        <ele>482</ele>
        <time>2016-06-05T06:57:36Z</time>
      </trkpt>
      <trkpt lat="43.56844" lon="5.86399">
        <ele>482</ele>
        <time>2016-06-05T06:57:43Z</time>
      </trkpt>
      <trkpt lat="43.56846" lon="5.86373">
        <ele>482</ele>
        <time>2016-06-05T06:57:50Z</time>
      </trkpt>
      <trkpt lat="43.56846" lon="5.86346">
        <ele>482</ele>
        <time>2016-06-05T06:58:06Z</time>
      </trkpt>
      <trkpt lat="43.56844" lon="5.86321">
        <ele>482</ele>
        <time>2016-06-05T06:58:13Z</time>
      </trkpt>
      <trkpt lat="43.56843" lon="5.86293">
        <ele>483</ele>
        <time>2016-06-05T06:58:21Z</time>
      </trkpt>
      <trkpt lat="43.56847" lon="5.86265">
        <ele>483</ele>
        <time>2016-06-05T06:58:29Z</time>
      </trkpt>
      <trkpt lat="43.56851" lon="5.86239">
        <ele>484</ele>
        <time>2016-06-05T06:58:36Z</time>
      </trkpt>
      <trkpt lat="43.56858" lon="5.86213">
        <ele>484</ele>
        <time>2016-06-05T06:58:43Z</time>
      </trkpt>
      <trkpt lat="43.56861" lon="5.86185">
        <ele>484</ele>
        <time>2016-06-05T06:58:50Z</time>
      </trkpt>
      <trkpt lat="43.56847" lon="5.86168">
        <ele>484</ele>
        <time>2016-06-05T06:59:01Z</time>
      </trkpt>
      <trkpt lat="43.5683" lon="5.86181">
        <ele>484</ele>
        <time>2016-06-05T06:59:55Z</time>
      </trkpt>
      <trkpt lat="43.56811" lon="5.86181">
        <ele>484</ele>
        <time>2016-06-05T07:00:06Z</time>
      </trkpt>
      <trkpt lat="43.56791" lon="5.86181">
        <ele>484</ele>
        <time>2016-06-05T07:00:14Z</time>
      </trkpt>
      <trkpt lat="43.5677" lon="5.86183">
        <ele>484</ele>
        <time>2016-06-05T07:00:19Z</time>
      </trkpt>
      <trkpt lat="43.56748" lon="5.86179">
        <ele>484</ele>
        <time>2016-06-05T07:00:25Z</time>
      </trkpt>
      <trkpt lat="43.56728" lon="5.86172">
        <ele>485</ele>
        <time>2016-06-05T07:00:31Z</time>
      </trkpt>
      <trkpt lat="43.56709" lon="5.8617">
        <ele>486</ele>
        <time>2016-06-05T07:00:36Z</time>
      </trkpt>
      <trkpt lat="43.5669" lon="5.86165">
        <ele>485</ele>
        <time>2016-06-05T07:00:41Z</time>
      </trkpt>
      <trkpt lat="43.56672" lon="5.86157">
        <ele>486</ele>
        <time>2016-06-05T07:00:46Z</time>
      </trkpt>
      <trkpt lat="43.56653" lon="5.8616">
        <ele>488</ele>
        <time>2016-06-05T07:00:52Z</time>
      </trkpt>
      <trkpt lat="43.56636" lon="5.86168">
        <ele>489</ele>
        <time>2016-06-05T07:00:59Z</time>
      </trkpt>
      <trkpt lat="43.56619" lon="5.86176">
        <ele>489</ele>
        <time>2016-06-05T07:01:04Z</time>
      </trkpt>
      <trkpt lat="43.566" lon="5.86181">
        <ele>490</ele>
        <time>2016-06-05T07:01:09Z</time>
      </trkpt>
      <trkpt lat="43.5658" lon="5.86183">
        <ele>490</ele>
        <time>2016-06-05T07:01:15Z</time>
      </trkpt>
      <trkpt lat="43.56562" lon="5.86193">
        <ele>490</ele>
        <time>2016-06-05T07:01:21Z</time>
      </trkpt>
      <trkpt lat="43.56546" lon="5.86209">
        <ele>490</ele>
        <time>2016-06-05T07:01:28Z</time>
      </trkpt>
      <trkpt lat="43.56531" lon="5.86223">
        <ele>490</ele>
        <time>2016-06-05T07:01:34Z</time>
      </trkpt>
      <trkpt lat="43.56515" lon="5.86237">
        <ele>490</ele>
        <time>2016-06-05T07:01:39Z</time>
      </trkpt>
      <trkpt lat="43.56492" lon="5.86248">
        <ele>489</ele>
        <time>2016-06-05T07:02:24Z</time>
      </trkpt>
      <trkpt lat="43.56475" lon="5.86259">
        <ele>489</ele>
        <time>2016-06-05T07:09:43Z</time>
      </trkpt>
      <trkpt lat="43.56457" lon="5.86269">
        <ele>489</ele>
        <time>2016-06-05T07:09:50Z</time>
      </trkpt>
      <trkpt lat="43.56436" lon="5.86275">
        <ele>488</ele>
        <time>2016-06-05T07:09:56Z</time>
      </trkpt>
      <trkpt lat="43.56415" lon="5.8628">
        <ele>485</ele>
        <time>2016-06-05T07:10:01Z</time>
      </trkpt>
      <trkpt lat="43.56393" lon="5.86284">
        <ele>485</ele>
        <time>2016-06-05T07:10:06Z</time>
      </trkpt>
      <trkpt lat="43.56375" lon="5.8628">
        <ele>484</ele>
        <time>2016-06-05T07:10:10Z</time>
      </trkpt>
      <trkpt lat="43.56356" lon="5.86286">
        <ele>484</ele>
        <time>2016-06-05T07:10:14Z</time>
      </trkpt>
      <trkpt lat="43.56338" lon="5.86288">
        <ele>483</ele>
        <time>2016-06-05T07:10:18Z</time>
      </trkpt>
      <trkpt lat="43.56319" lon="5.86287">
        <ele>480</ele>
        <time>2016-06-05T07:10:22Z</time>
      </trkpt>
      <trkpt lat="43.56298" lon="5.86284">
        <ele>480</ele>
        <time>2016-06-05T07:10:26Z</time>
      </trkpt>
      <trkpt lat="43.56279" lon="5.86278">
        <ele>480</ele>
        <time>2016-06-05T07:10:32Z</time>
      </trkpt>
      <trkpt lat="43.56261" lon="5.86277">
        <ele>480</ele>
        <time>2016-06-05T07:11:09Z</time>
      </trkpt>
      <trkpt lat="43.56242" lon="5.8628">
        <ele>477</ele>
        <time>2016-06-05T07:11:30Z</time>
      </trkpt>
      <trkpt lat="43.56224" lon="5.86281">
        <ele>477</ele>
        <time>2016-06-05T07:11:40Z</time>
      </trkpt>
      <trkpt lat="43.56206" lon="5.86288">
        <ele>477</ele>
        <time>2016-06-05T07:11:47Z</time>
      </trkpt>
      <trkpt lat="43.56187" lon="5.86295">
        <ele>476</ele>
        <time>2016-06-05T07:11:56Z</time>
      </trkpt>
      <trkpt lat="43.56169" lon="5.86304">
        <ele>476</ele>
        <time>2016-06-05T07:12:05Z</time>
      </trkpt>
      <trkpt lat="43.56151" lon="5.86309">
        <ele>472</ele>
        <time>2016-06-05T07:12:21Z</time>
      </trkpt>
      <trkpt lat="43.56132" lon="5.86315">
        <ele>470</ele>
        <time>2016-06-05T07:12:31Z</time>
      </trkpt>
      <trkpt lat="43.56113" lon="5.86312">
        <ele>469</ele>
        <time>2016-06-05T07:12:38Z</time>
      </trkpt>
      <trkpt lat="43.56091" lon="5.86306">
        <ele>468</ele>
        <time>2016-06-05T07:12:43Z</time>
      </trkpt>
      <trkpt lat="43.56072" lon="5.863">
        <ele>460</ele>
        <time>2016-06-05T07:12:47Z</time>
      </trkpt>
      <trkpt lat="43.56048" lon="5.86291">
        <ele>458</ele>
        <time>2016-06-05T07:12:51Z</time>
      </trkpt>
      <trkpt lat="43.56026" lon="5.8628">
        <ele>457</ele>
        <time>2016-06-05T07:12:54Z</time>
      </trkpt>
      <trkpt lat="43.56006" lon="5.86274">
        <ele>455</ele>
        <time>2016-06-05T07:12:57Z</time>
      </trkpt>
      <trkpt lat="43.55986" lon="5.86266">
        <ele>451</ele>
        <time>2016-06-05T07:13:01Z</time>
      </trkpt>
      <trkpt lat="43.55968" lon="5.8626">
        <ele>450</ele>
        <time>2016-06-05T07:13:05Z</time>
      </trkpt>
      <trkpt lat="43.55948" lon="5.86255">
        <ele>449</ele>
        <time>2016-06-05T07:13:09Z</time>
      </trkpt>
      <trkpt lat="43.55931" lon="5.86246">
        <ele>449</ele>
        <time>2016-06-05T07:13:16Z</time>
      </trkpt>
      <trkpt lat="43.55914" lon="5.86262">
        <ele>449</ele>
        <time>2016-06-05T07:13:46Z</time>
      </trkpt>
      <trkpt lat="43.55909" lon="5.86287">
        <ele>450</ele>
        <time>2016-06-05T07:13:52Z</time>
      </trkpt>
      <trkpt lat="43.55909" lon="5.86312">
        <ele>450</ele>
        <time>2016-06-05T07:13:58Z</time>
      </trkpt>
      <trkpt lat="43.55912" lon="5.8634">
        <ele>449</ele>
        <time>2016-06-05T07:14:04Z</time>
      </trkpt>
      <trkpt lat="43.55918" lon="5.86365">
        <ele>448</ele>
        <time>2016-06-05T07:14:09Z</time>
      </trkpt>
      <trkpt lat="43.55931" lon="5.86387">
        <ele>448</ele>
        <time>2016-06-05T07:14:15Z</time>
      </trkpt>
      <trkpt lat="43.55943" lon="5.86412">
        <ele>447</ele>
        <time>2016-06-05T07:14:21Z</time>
      </trkpt>
      <trkpt lat="43.55957" lon="5.86428">
        <ele>448</ele>
        <time>2016-06-05T07:14:25Z</time>
      </trkpt>
      <trkpt lat="43.55975" lon="5.86444">
        <ele>448</ele>
        <time>2016-06-05T07:14:29Z</time>
      </trkpt>
      <trkpt lat="43.55993" lon="5.86457">
        <ele>447</ele>
        <time>2016-06-05T07:14:33Z</time>
      </trkpt>
      <trkpt lat="43.56013" lon="5.86468">
        <ele>449</ele>
        <time>2016-06-05T07:14:38Z</time>
      </trkpt>
      <trkpt lat="43.5603" lon="5.86481">
        <ele>450</ele>
        <time>2016-06-05T07:14:54Z</time>
      </trkpt>
      <trkpt lat="43.56035" lon="5.86505">
        <ele>446</ele>
        <time>2016-06-05T07:15:41Z</time>
      </trkpt>
      <trkpt lat="43.56048" lon="5.86525">
        <ele>447</ele>
        <time>2016-06-05T07:15:51Z</time>
      </trkpt>
      <trkpt lat="43.56063" lon="5.86544">
        <ele>446</ele>
        <time>2016-06-05T07:16:00Z</time>
      </trkpt>
      <trkpt lat="43.56075" lon="5.86568">
        <ele>445</ele>
        <time>2016-06-05T07:16:07Z</time>
      </trkpt>
      <trkpt lat="43.5608" lon="5.86592">
        <ele>444</ele>
        <time>2016-06-05T07:16:12Z</time>
      </trkpt>
      <trkpt lat="43.56078" lon="5.86617">
        <ele>444</ele>
        <time>2016-06-05T07:16:18Z</time>
      </trkpt>
      <trkpt lat="43.56058" lon="5.86621">
        <ele>444</ele>
        <time>2016-06-05T07:16:25Z</time>
      </trkpt>
      <trkpt lat="43.56038" lon="5.86619">
        <ele>444</ele>
        <time>2016-06-05T07:16:31Z</time>
      </trkpt>
      <trkpt lat="43.56019" lon="5.86621">
        <ele>444</ele>
        <time>2016-06-05T07:16:36Z</time>
      </trkpt>
      <trkpt lat="43.56001" lon="5.86616">
        <ele>444</ele>
        <time>2016-06-05T07:16:41Z</time>
      </trkpt>
      <trkpt lat="43.55982" lon="5.86614">
        <ele>443</ele>
        <time>2016-06-05T07:16:48Z</time>
      </trkpt>
      <trkpt lat="43.55966" lon="5.86626">
        <ele>443</ele>
        <time>2016-06-05T07:16:55Z</time>
      </trkpt>
      <trkpt lat="43.55947" lon="5.86637">
        <ele>442</ele>
        <time>2016-06-05T07:17:02Z</time>
      </trkpt>
      <trkpt lat="43.55931" lon="5.86649">
        <ele>441</ele>
        <time>2016-06-05T07:17:08Z</time>
      </trkpt>
      <trkpt lat="43.5591" lon="5.86657">
        <ele>440</ele>
        <time>2016-06-05T07:17:15Z</time>
      </trkpt>
      <trkpt lat="43.55895" lon="5.8667">
        <ele>438</ele>
        <time>2016-06-05T07:17:22Z</time>
      </trkpt>
      <trkpt lat="43.55879" lon="5.86687">
        <ele>438</ele>
        <time>2016-06-05T07:17:29Z</time>
      </trkpt>
      <trkpt lat="43.55867" lon="5.86706">
        <ele>438</ele>
        <time>2016-06-05T07:17:35Z</time>
      </trkpt>
      <trkpt lat="43.55849" lon="5.86715">
        <ele>438</ele>
        <time>2016-06-05T07:17:42Z</time>
      </trkpt>
      <trkpt lat="43.5583" lon="5.86721">
        <ele>441</ele>
        <time>2016-06-05T07:17:49Z</time>
      </trkpt>
      <trkpt lat="43.5581" lon="5.86726">
        <ele>441</ele>
        <time>2016-06-05T07:17:56Z</time>
      </trkpt>
      <trkpt lat="43.55795" lon="5.8674">
        <ele>442</ele>
        <time>2016-06-05T07:18:02Z</time>
      </trkpt>
      <trkpt lat="43.55784" lon="5.86764">
        <ele>439</ele>
        <time>2016-06-05T07:18:09Z</time>
      </trkpt>
      <trkpt lat="43.55772" lon="5.86787">
        <ele>439</ele>
        <time>2016-06-05T07:18:15Z</time>
      </trkpt>
      <trkpt lat="43.5576" lon="5.86807">
        <ele>438</ele>
        <time>2016-06-05T07:18:21Z</time>
      </trkpt>
      <trkpt lat="43.55752" lon="5.86833">
        <ele>435</ele>
        <time>2016-06-05T07:18:27Z</time>
      </trkpt>
      <trkpt lat="43.55749" lon="5.86862">
        <ele>438</ele>
        <time>2016-06-05T07:18:33Z</time>
      </trkpt>
      <trkpt lat="43.55746" lon="5.86891">
        <ele>438</ele>
        <time>2016-06-05T07:18:39Z</time>
      </trkpt>
      <trkpt lat="43.55744" lon="5.86917">
        <ele>433</ele>
        <time>2016-06-05T07:18:45Z</time>
      </trkpt>
      <trkpt lat="43.55744" lon="5.86946">
        <ele>436</ele>
        <time>2016-06-05T07:18:51Z</time>
      </trkpt>
      <trkpt lat="43.55745" lon="5.86975">
        <ele>435</ele>
        <time>2016-06-05T07:18:57Z</time>
      </trkpt>
      <trkpt lat="43.55749" lon="5.87001">
        <ele>431</ele>
        <time>2016-06-05T07:19:03Z</time>
      </trkpt>
      <trkpt lat="43.55759" lon="5.87022">
        <ele>434</ele>
        <time>2016-06-05T07:19:11Z</time>
      </trkpt>
      <trkpt lat="43.55773" lon="5.87039">
        <ele>435</ele>
        <time>2016-06-05T07:19:18Z</time>
      </trkpt>
      <trkpt lat="43.5578" lon="5.87063">
        <ele>435</ele>
        <time>2016-06-05T07:19:24Z</time>
      </trkpt>
      <trkpt lat="43.55795" lon="5.87081">
        <ele>436</ele>
        <time>2016-06-05T07:19:30Z</time>
      </trkpt>
      <trkpt lat="43.55807" lon="5.87102">
        <ele>436</ele>
        <time>2016-06-05T07:19:39Z</time>
      </trkpt>
      <trkpt lat="43.558" lon="5.87125">
        <ele>435</ele>
        <time>2016-06-05T07:19:48Z</time>
      </trkpt>
      <trkpt lat="43.55784" lon="5.87138">
        <ele>435</ele>
        <time>2016-06-05T07:20:05Z</time>
      </trkpt>
      <trkpt lat="43.55765" lon="5.87137">
        <ele>434</ele>
        <time>2016-06-05T07:24:02Z</time>
      </trkpt>
      <trkpt lat="43.55747" lon="5.87138">
        <ele>431</ele>
        <time>2016-06-05T07:24:10Z</time>
      </trkpt>
      <trkpt lat="43.55729" lon="5.87141">
        <ele>431</ele>
        <time>2016-06-05T07:24:19Z</time>
      </trkpt>
      <trkpt lat="43.5571" lon="5.87143">
        <ele>430</ele>
        <time>2016-06-05T07:24:35Z</time>
      </trkpt>
      <trkpt lat="43.5569" lon="5.87142">
        <ele>430</ele>
        <time>2016-06-05T07:25:21Z</time>
      </trkpt>
      <trkpt lat="43.55672" lon="5.87142">
        <ele>430</ele>
        <time>2016-06-05T07:25:28Z</time>
      </trkpt>
      <trkpt lat="43.55653" lon="5.87132">
        <ele>430</ele>
        <time>2016-06-05T07:25:36Z</time>
      </trkpt>
      <trkpt lat="43.55636" lon="5.87122">
        <ele>431</ele>
        <time>2016-06-05T07:25:42Z</time>
      </trkpt>
      <trkpt lat="43.55618" lon="5.87118">
        <ele>431</ele>
        <time>2016-06-05T07:25:49Z</time>
      </trkpt>
      <trkpt lat="43.55601" lon="5.87127">
        <ele>430</ele>
        <time>2016-06-05T07:26:03Z</time>
      </trkpt>
      <trkpt lat="43.55582" lon="5.87121">
        <ele>431</ele>
        <time>2016-06-05T07:28:24Z</time>
      </trkpt>
      <trkpt lat="43.55594" lon="5.8714">
        <ele>429</ele>
        <time>2016-06-05T07:29:11Z</time>
      </trkpt>
      <trkpt lat="43.55612" lon="5.87146">
        <ele>429</ele>
        <time>2016-06-05T07:29:28Z</time>
      </trkpt>
      <trkpt lat="43.55618" lon="5.87169">
        <ele>426</ele>
        <time>2016-06-05T07:29:57Z</time>
      </trkpt>
      <trkpt lat="43.55614" lon="5.87195">
        <ele>426</ele>
        <time>2016-06-05T07:30:09Z</time>
      </trkpt>
      <trkpt lat="43.55603" lon="5.87215">
        <ele>425</ele>
        <time>2016-06-05T07:30:21Z</time>
      </trkpt>
      <trkpt lat="43.55585" lon="5.87219">
        <ele>425</ele>
        <time>2016-06-05T07:30:32Z</time>
      </trkpt>
      <trkpt lat="43.55566" lon="5.87228">
        <ele>426</ele>
        <time>2016-06-05T07:30:42Z</time>
      </trkpt>
      <trkpt lat="43.55558" lon="5.8725">
        <ele>426</ele>
        <time>2016-06-05T07:30:54Z</time>
      </trkpt>
      <trkpt lat="43.5556" lon="5.87265">
        <ele>425</ele>
      </trkpt>
      <trkpt lat="43.55561" lon="5.87273">
        <ele>425</ele>
        <time>2016-06-05T07:32:28Z</time>
      </trkpt>
      <trkpt lat="43.5556" lon="5.873">
        <ele>425</ele>
        <time>2016-06-05T07:32:37Z</time>
      </trkpt>
      <trkpt lat="43.55553" lon="5.87324">
        <ele>424</ele>
        <time>2016-06-05T07:32:47Z</time>
      </trkpt>
      <trkpt lat="43.55561" lon="5.87351">
        <ele>424</ele>
        <time>2016-06-05T07:32:53Z</time>
      </trkpt>
      <trkpt lat="43.55562" lon="5.87381">
        <ele>424</ele>
        <time>2016-06-05T07:32:59Z</time>
      </trkpt>
      <trkpt lat="43.55557" lon="5.87405">
        <ele>423</ele>
        <time>2016-06-05T07:33:05Z</time>
      </trkpt>
      <trkpt lat="43.55558" lon="5.87434">
        <ele>423</ele>
        <time>2016-06-05T07:33:13Z</time>
      </trkpt>
      <trkpt lat="43.55565" lon="5.87458">
        <ele>423</ele>
        <time>2016-06-05T07:33:20Z</time>
      </trkpt>
      <trkpt lat="43.55558" lon="5.87481">
        <ele>423</ele>
        <time>2016-06-05T07:33:35Z</time>
      </trkpt>
      <trkpt lat="43.55542" lon="5.87494">
        <ele>424</ele>
        <time>2016-06-05T07:33:45Z</time>
      </trkpt>
      <trkpt lat="43.55524" lon="5.87498">
        <ele>425</ele>
        <time>2016-06-05T07:33:55Z</time>
      </trkpt>
      <trkpt lat="43.55505" lon="5.87498">
        <ele>426</ele>
        <time>2016-06-05T07:34:05Z</time>
      </trkpt>
      <trkpt lat="43.5549" lon="5.87483">
        <ele>428</ele>
        <time>2016-06-05T07:34:15Z</time>
      </trkpt>
      <trkpt lat="43.55473" lon="5.8747">
        <ele>429</ele>
        <time>2016-06-05T07:34:24Z</time>
      </trkpt>
      <trkpt lat="43.55455" lon="5.87465">
        <ele>430</ele>
        <time>2016-06-05T07:34:32Z</time>
      </trkpt>
      <trkpt lat="43.5544" lon="5.8745">
        <ele>430</ele>
        <time>2016-06-05T07:34:40Z</time>
      </trkpt>
      <trkpt lat="43.55423" lon="5.87439">
        <ele>430</ele>
        <time>2016-06-05T07:34:48Z</time>
      </trkpt>
      <trkpt lat="43.55405" lon="5.8744">
        <ele>432</ele>
        <time>2016-06-05T07:34:56Z</time>
      </trkpt>
      <trkpt lat="43.55385" lon="5.87433">
        <ele>433</ele>
        <time>2016-06-05T07:35:04Z</time>
      </trkpt>
      <trkpt lat="43.55365" lon="5.87426">
        <ele>433</ele>
        <time>2016-06-05T07:35:12Z</time>
      </trkpt>
      <trkpt lat="43.55347" lon="5.87417">
        <ele>433</ele>
        <time>2016-06-05T07:35:19Z</time>
      </trkpt>
      <trkpt lat="43.55329" lon="5.87412">
        <ele>433</ele>
        <time>2016-06-05T07:35:26Z</time>
      </trkpt>
      <trkpt lat="43.55311" lon="5.874">
        <ele>434</ele>
        <time>2016-06-05T07:35:33Z</time>
      </trkpt>
      <trkpt lat="43.55296" lon="5.87383">
        <ele>435</ele>
        <time>2016-06-05T07:35:42Z</time>
      </trkpt>
      <trkpt lat="43.55278" lon="5.87375">
        <ele>435</ele>
        <time>2016-06-05T07:35:51Z</time>
      </trkpt>
      <trkpt lat="43.5526" lon="5.87384">
        <ele>435</ele>
        <time>2016-06-05T07:36:01Z</time>
      </trkpt>
      <trkpt lat="43.55245" lon="5.87399">
        <ele>437</ele>
        <time>2016-06-05T07:37:47Z</time>
      </trkpt>
      <trkpt lat="43.55232" lon="5.87417">
        <ele>437</ele>
        <time>2016-06-05T07:38:00Z</time>
      </trkpt>
      <trkpt lat="43.55226" lon="5.87442">
        <ele>439</ele>
        <time>2016-06-05T07:38:13Z</time>
      </trkpt>
      <trkpt lat="43.55212" lon="5.87461">
        <ele>440</ele>
        <time>2016-06-05T07:38:24Z</time>
      </trkpt>
      <trkpt lat="43.55194" lon="5.87473">
        <ele>440</ele>
        <time>2016-06-05T07:38:34Z</time>
      </trkpt>
      <trkpt lat="43.55177" lon="5.87485">
        <ele>441</ele>
        <time>2016-06-05T07:38:44Z</time>
      </trkpt>
      <trkpt lat="43.55161" lon="5.87496">
        <ele>445</ele>
        <time>2016-06-05T07:38:53Z</time>
      </trkpt>
      <trkpt lat="43.55147" lon="5.87516">
        <ele>447</ele>
        <time>2016-06-05T07:39:03Z</time>
      </trkpt>
      <trkpt lat="43.55133" lon="5.87532">
        <ele>448</ele>
        <time>2016-06-05T07:39:12Z</time>
      </trkpt>
      <trkpt lat="43.55118" lon="5.87549">
        <ele>449</ele>
        <time>2016-06-05T07:39:22Z</time>
      </trkpt>
      <trkpt lat="43.55102" lon="5.87564">
        <ele>449</ele>
        <time>2016-06-05T07:39:31Z</time>
      </trkpt>
      <trkpt lat="43.55088" lon="5.87582">
        <ele>450</ele>
        <time>2016-06-05T07:39:40Z</time>
      </trkpt>
      <trkpt lat="43.55073" lon="5.87597">
        <ele>452</ele>
        <time>2016-06-05T07:39:49Z</time>
      </trkpt>
      <trkpt lat="43.55059" lon="5.87614">
        <ele>453</ele>
        <time>2016-06-05T07:39:58Z</time>
      </trkpt>
      <trkpt lat="43.55042" lon="5.87629">
        <ele>453</ele>
        <time>2016-06-05T07:40:07Z</time>
      </trkpt>
      <trkpt lat="43.55024" lon="5.87639">
        <ele>454</ele>
        <time>2016-06-05T07:40:15Z</time>
      </trkpt>
      <trkpt lat="43.55006" lon="5.8765">
        <ele>454</ele>
        <time>2016-06-05T07:40:22Z</time>
      </trkpt>
      <trkpt lat="43.54987" lon="5.87654">
        <ele>456</ele>
        <time>2016-06-05T07:40:29Z</time>
      </trkpt>
      <trkpt lat="43.54969" lon="5.87658">
        <ele>456</ele>
        <time>2016-06-05T07:40:35Z</time>
      </trkpt>
      <trkpt lat="43.5495" lon="5.87668">
        <ele>452</ele>
        <time>2016-06-05T07:40:41Z</time>
      </trkpt>
      <trkpt lat="43.5493" lon="5.87675">
        <ele>452</ele>
        <time>2016-06-05T07:40:46Z</time>
      </trkpt>
      <trkpt lat="43.5491" lon="5.87676">
        <ele>451</ele>
        <time>2016-06-05T07:40:50Z</time>
      </trkpt>
      <trkpt lat="43.54892" lon="5.8768">
        <ele>450</ele>
        <time>2016-06-05T07:40:54Z</time>
      </trkpt>
      <trkpt lat="43.5487" lon="5.87685">
        <ele>449</ele>
        <time>2016-06-05T07:40:59Z</time>
      </trkpt>
      <trkpt lat="43.54852" lon="5.87678">
        <ele>448</ele>
        <time>2016-06-05T07:41:03Z</time>
      </trkpt>
      <trkpt lat="43.54834" lon="5.87671">
        <ele>448</ele>
        <time>2016-06-05T07:41:07Z</time>
      </trkpt>
      <trkpt lat="43.54815" lon="5.8766">
        <ele>452</ele>
        <time>2016-06-05T07:41:12Z</time>
      </trkpt>
      <trkpt lat="43.54794" lon="5.87659">
        <ele>453</ele>
        <time>2016-06-05T07:41:18Z</time>
      </trkpt>
      <trkpt lat="43.54779" lon="5.87673">
        <ele>450</ele>
        <time>2016-06-05T07:41:24Z</time>
      </trkpt>
      <trkpt lat="43.5476" lon="5.87684">
        <ele>451</ele>
        <time>2016-06-05T07:41:31Z</time>
      </trkpt>
      <trkpt lat="43.54743" lon="5.877">
        <ele>458</ele>
        <time>2016-06-05T07:41:38Z</time>
      </trkpt>
      <trkpt lat="43.54733" lon="5.87724">
        <ele>458</ele>
        <time>2016-06-05T07:41:45Z</time>
      </trkpt>
      <trkpt lat="43.54723" lon="5.87744">
        <ele>458</ele>
        <time>2016-06-05T07:41:51Z</time>
      </trkpt>
      <trkpt lat="43.54715" lon="5.87768">
        <ele>458</ele>
        <time>2016-06-05T07:41:57Z</time>
      </trkpt>
      <trkpt lat="43.54709" lon="5.87792">
        <ele>458</ele>
        <time>2016-06-05T07:42:03Z</time>
      </trkpt>
      <trkpt lat="43.54702" lon="5.87817">
        <ele>458</ele>
        <time>2016-06-05T07:42:10Z</time>
      </trkpt>
      <trkpt lat="43.54688" lon="5.87834">
        <ele>457</ele>
        <time>2016-06-05T07:42:17Z</time>
      </trkpt>
      <trkpt lat="43.54676" lon="5.87854">
        <ele>457</ele>
        <time>2016-06-05T07:42:24Z</time>
      </trkpt>
      <trkpt lat="43.54663" lon="5.87875">
        <ele>460</ele>
        <time>2016-06-05T07:42:32Z</time>
      </trkpt>
      <trkpt lat="43.54649" lon="5.87895">
        <ele>460</ele>
        <time>2016-06-05T07:42:39Z</time>
      </trkpt>
      <trkpt lat="43.54638" lon="5.87915">
        <ele>460</ele>
        <time>2016-06-05T07:42:45Z</time>
      </trkpt>
      <trkpt lat="43.5462" lon="5.87929">
        <ele>457</ele>
        <time>2016-06-05T07:42:52Z</time>
      </trkpt>
      <trkpt lat="43.54604" lon="5.87948">
        <ele>456</ele>
        <time>2016-06-05T07:42:59Z</time>
      </trkpt>
      <trkpt lat="43.54588" lon="5.87961">
        <ele>456</ele>
        <time>2016-06-05T07:43:06Z</time>
      </trkpt>
      <trkpt lat="43.54574" lon="5.87978">
        <ele>456</ele>
        <time>2016-06-05T07:43:19Z</time>
      </trkpt>
      <trkpt lat="43.54557" lon="5.87987">
        <ele>457</ele>
        <time>2016-06-05T07:43:39Z</time>
      </trkpt>
      <trkpt lat="43.5454" lon="5.87996">
        <ele>458</ele>
        <time>2016-06-05T07:43:59Z</time>
      </trkpt>
      <trkpt lat="43.54531" lon="5.88019">
        <ele>454</ele>
        <time>2016-06-05T07:44:10Z</time>
      </trkpt>
      <trkpt lat="43.5452" lon="5.88038">
        <ele>454</ele>
        <time>2016-06-05T07:44:20Z</time>
      </trkpt>
      <trkpt lat="43.54506" lon="5.88056">
        <ele>454</ele>
        <time>2016-06-05T07:44:30Z</time>
      </trkpt>
      <trkpt lat="43.54493" lon="5.88074">
        <ele>457</ele>
        <time>2016-06-05T07:44:38Z</time>
      </trkpt>
      <trkpt lat="43.5448" lon="5.88093">
        <ele>454</ele>
        <time>2016-06-05T07:44:45Z</time>
      </trkpt>
      <trkpt lat="43.54467" lon="5.88112">
        <ele>454</ele>
        <time>2016-06-05T07:44:52Z</time>
      </trkpt>
      <trkpt lat="43.54456" lon="5.88135">
        <ele>453</ele>
        <time>2016-06-05T07:44:58Z</time>
      </trkpt>
      <trkpt lat="43.54452" lon="5.88163">
        <ele>453</ele>
        <time>2016-06-05T07:45:03Z</time>
      </trkpt>
      <trkpt lat="43.54436" lon="5.8818">
        <ele>448</ele>
        <time>2016-06-05T07:45:08Z</time>
      </trkpt>
      <trkpt lat="43.54416" lon="5.88191">
        <ele>451</ele>
        <time>2016-06-05T07:45:14Z</time>
      </trkpt>
      <trkpt lat="43.544" lon="5.88208">
        <ele>451</ele>
        <time>2016-06-05T07:45:19Z</time>
      </trkpt>
      <trkpt lat="43.54384" lon="5.88222">
        <ele>450</ele>
        <time>2016-06-05T07:45:23Z</time>
      </trkpt>
      <trkpt lat="43.54367" lon="5.88235">
        <ele>451</ele>
        <time>2016-06-05T07:45:28Z</time>
      </trkpt>
      <trkpt lat="43.54349" lon="5.88247">
        <ele>451</ele>
        <time>2016-06-05T07:45:35Z</time>
      </trkpt>
      <trkpt lat="43.54333" lon="5.8826">
        <ele>450</ele>
        <time>2016-06-05T07:45:43Z</time>
      </trkpt>
      <trkpt lat="43.54315" lon="5.88272">
        <ele>449</ele>
        <time>2016-06-05T07:45:51Z</time>
      </trkpt>
      <trkpt lat="43.54298" lon="5.88285">
        <ele>448</ele>
        <time>2016-06-05T07:45:57Z</time>
      </trkpt>
      <trkpt lat="43.54281" lon="5.88298">
        <ele>447</ele>
        <time>2016-06-05T07:46:02Z</time>
      </trkpt>
      <trkpt lat="43.54262" lon="5.8831">
        <ele>446</ele>
        <time>2016-06-05T07:46:07Z</time>
      </trkpt>
      <trkpt lat="43.54245" lon="5.88324">
        <ele>446</ele>
        <time>2016-06-05T07:46:11Z</time>
      </trkpt>
      <trkpt lat="43.54227" lon="5.8833">
        <ele>446</ele>
        <time>2016-06-05T07:46:14Z</time>
      </trkpt>
      <trkpt lat="43.54209" lon="5.88337">
        <ele>443</ele>
        <time>2016-06-05T07:46:17Z</time>
      </trkpt>
      <trkpt lat="43.54188" lon="5.88338">
        <ele>443</ele>
        <time>2016-06-05T07:46:20Z</time>
      </trkpt>
      <trkpt lat="43.5417" lon="5.88343">
        <ele>443</ele>
        <time>2016-06-05T07:46:23Z</time>
      </trkpt>
      <trkpt lat="43.5415" lon="5.88359">
        <ele>442</ele>
        <time>2016-06-05T07:46:27Z</time>
      </trkpt>
      <trkpt lat="43.54132" lon="5.88374">
        <ele>442</ele>
        <time>2016-06-05T07:46:30Z</time>
      </trkpt>
      <trkpt lat="43.54111" lon="5.88393">
        <ele>441</ele>
        <time>2016-06-05T07:46:33Z</time>
      </trkpt>
      <trkpt lat="43.54092" lon="5.88411">
        <ele>439</ele>
        <time>2016-06-05T07:46:36Z</time>
      </trkpt>
      <trkpt lat="43.54073" lon="5.88423">
        <ele>437</ele>
        <time>2016-06-05T07:46:39Z</time>
      </trkpt>
      <trkpt lat="43.54054" lon="5.88431">
        <ele>436</ele>
        <time>2016-06-05T07:46:42Z</time>
      </trkpt>
      <trkpt lat="43.54036" lon="5.88442">
        <ele>437</ele>
        <time>2016-06-05T07:46:45Z</time>
      </trkpt>
      <trkpt lat="43.54018" lon="5.8845">
        <ele>437</ele>
        <time>2016-06-05T07:46:48Z</time>
      </trkpt>
      <trkpt lat="43.54001" lon="5.88461">
        <ele>437</ele>
        <time>2016-06-05T07:46:51Z</time>
      </trkpt>
      <trkpt lat="43.53982" lon="5.88467">
        <ele>437</ele>
        <time>2016-06-05T07:46:54Z</time>
      </trkpt>
      <trkpt lat="43.53963" lon="5.88463">
        <ele>437</ele>
        <time>2016-06-05T07:46:57Z</time>
      </trkpt>
      <trkpt lat="43.53945" lon="5.88453">
        <ele>437</ele>
        <time>2016-06-05T07:47:00Z</time>
      </trkpt>
      <trkpt lat="43.53927" lon="5.88444">
        <ele>438</ele>
        <time>2016-06-05T07:47:03Z</time>
      </trkpt>
      <trkpt lat="43.53904" lon="5.88442">
        <ele>433</ele>
        <time>2016-06-05T07:47:07Z</time>
      </trkpt>
      <trkpt lat="43.53884" lon="5.88438">
        <ele>432</ele>
        <time>2016-06-05T07:47:11Z</time>
      </trkpt>
      <trkpt lat="43.53861" lon="5.88441">
        <ele>430</ele>
        <time>2016-06-05T07:47:15Z</time>
      </trkpt>
      <trkpt lat="43.53842" lon="5.8845">
        <ele>428</ele>
        <time>2016-06-05T07:47:20Z</time>
      </trkpt>
      <trkpt lat="43.53823" lon="5.88442">
        <ele>425</ele>
        <time>2016-06-05T07:47:24Z</time>
      </trkpt>
      <trkpt lat="43.53808" lon="5.88427">
        <ele>425</ele>
        <time>2016-06-05T07:47:29Z</time>
      </trkpt>
      <trkpt lat="43.53788" lon="5.88429">
        <ele>426</ele>
        <time>2016-06-05T07:47:34Z</time>
      </trkpt>
      <trkpt lat="43.53767" lon="5.88439">
        <ele>426</ele>
        <time>2016-06-05T07:47:39Z</time>
      </trkpt>
      <trkpt lat="43.53754" lon="5.88461">
        <ele>425</ele>
        <time>2016-06-05T07:47:46Z</time>
      </trkpt>
      <trkpt lat="43.53745" lon="5.88485">
        <ele>425</ele>
        <time>2016-06-05T07:47:52Z</time>
      </trkpt>
      <trkpt lat="43.53733" lon="5.88508">
        <ele>422</ele>
        <time>2016-06-05T07:47:57Z</time>
      </trkpt>
      <trkpt lat="43.53718" lon="5.88529">
        <ele>422</ele>
        <time>2016-06-05T07:48:01Z</time>
      </trkpt>
      <trkpt lat="43.53706" lon="5.88548">
        <ele>421</ele>
        <time>2016-06-05T07:48:04Z</time>
      </trkpt>
      <trkpt lat="43.53686" lon="5.88567">
        <ele>420</ele>
        <time>2016-06-05T07:48:08Z</time>
      </trkpt>
      <trkpt lat="43.5367" lon="5.88582">
        <ele>418</ele>
        <time>2016-06-05T07:48:11Z</time>
      </trkpt>
      <trkpt lat="43.53649" lon="5.88596">
        <ele>416</ele>
        <time>2016-06-05T07:48:14Z</time>
      </trkpt>
      <trkpt lat="43.53633" lon="5.8861">
        <ele>415</ele>
        <time>2016-06-05T07:48:17Z</time>
      </trkpt>
      <trkpt lat="43.53617" lon="5.88621">
        <ele>415</ele>
        <time>2016-06-05T07:48:20Z</time>
      </trkpt>
      <trkpt lat="43.53593" lon="5.88629">
        <ele>414</ele>
        <time>2016-06-05T07:48:24Z</time>
      </trkpt>
      <trkpt lat="43.53571" lon="5.88636">
        <ele>418</ele>
        <time>2016-06-05T07:48:28Z</time>
      </trkpt>
      <trkpt lat="43.53553" lon="5.8865">
        <ele>418</ele>
        <time>2016-06-05T07:48:33Z</time>
      </trkpt>
      <trkpt lat="43.53539" lon="5.88672">
        <ele>414</ele>
        <time>2016-06-05T07:48:38Z</time>
      </trkpt>
      <trkpt lat="43.53524" lon="5.88693">
        <ele>415</ele>
        <time>2016-06-05T07:48:43Z</time>
      </trkpt>
      <trkpt lat="43.53511" lon="5.8871">
        <ele>414</ele>
        <time>2016-06-05T07:48:47Z</time>
      </trkpt>
      <trkpt lat="43.53493" lon="5.88726">
        <ele>416</ele>
        <time>2016-06-05T07:48:52Z</time>
      </trkpt>
      <trkpt lat="43.53475" lon="5.88731">
        <ele>416</ele>
        <time>2016-06-05T07:48:57Z</time>
      </trkpt>
      <trkpt lat="43.53457" lon="5.88731">
        <ele>417</ele>
        <time>2016-06-05T07:49:06Z</time>
      </trkpt>
      <trkpt lat="43.53439" lon="5.88735">
        <ele>416</ele>
        <time>2016-06-05T07:49:13Z</time>
      </trkpt>
      <trkpt lat="43.53418" lon="5.88731">
        <ele>416</ele>
        <time>2016-06-05T07:49:19Z</time>
      </trkpt>
      <trkpt lat="43.534" lon="5.88721">
        <ele>415</ele>
        <time>2016-06-05T07:49:23Z</time>
      </trkpt>
      <trkpt lat="43.5338" lon="5.8871">
        <ele>415</ele>
        <time>2016-06-05T07:49:27Z</time>
      </trkpt>
      <trkpt lat="43.53362" lon="5.88703">
        <ele>414</ele>
        <time>2016-06-05T07:49:30Z</time>
      </trkpt>
      <trkpt lat="43.53344" lon="5.88696">
        <ele>414</ele>
        <time>2016-06-05T07:49:33Z</time>
      </trkpt>
      <trkpt lat="43.53327" lon="5.88687">
        <ele>413</ele>
        <time>2016-06-05T07:49:36Z</time>
      </trkpt>
      <trkpt lat="43.53311" lon="5.88675">
        <ele>414</ele>
        <time>2016-06-05T07:49:39Z</time>
      </trkpt>
      <trkpt lat="43.53293" lon="5.88668">
        <ele>414</ele>
        <time>2016-06-05T07:49:43Z</time>
      </trkpt>
      <trkpt lat="43.53281" lon="5.88687">
        <ele>413</ele>
        <time>2016-06-05T07:51:22Z</time>
      </trkpt>
      <trkpt lat="43.53279" lon="5.88716">
        <ele>412</ele>
        <time>2016-06-05T07:51:28Z</time>
      </trkpt>
      <trkpt lat="43.5327" lon="5.88742">
        <ele>411</ele>
        <time>2016-06-05T07:51:34Z</time>
      </trkpt>
      <trkpt lat="43.53253" lon="5.88751">
        <ele>411</ele>
        <time>2016-06-05T07:51:39Z</time>
      </trkpt>
      <trkpt lat="43.5324" lon="5.88771">
        <ele>417</ele>
        <time>2016-06-05T07:51:45Z</time>
      </trkpt>
      <trkpt lat="43.5325" lon="5.88792">
        <ele>412</ele>
        <time>2016-06-05T07:51:56Z</time>
      </trkpt>
      <trkpt lat="43.53267" lon="5.88808">
        <ele>413</ele>
        <time>2016-06-05T07:52:01Z</time>
      </trkpt>
      <trkpt lat="43.53286" lon="5.88824">
        <ele>412</ele>
        <time>2016-06-05T07:52:06Z</time>
      </trkpt>
      <trkpt lat="43.53305" lon="5.8884">
        <ele>413</ele>
        <time>2016-06-05T07:52:11Z</time>
      </trkpt>
      <trkpt lat="43.5332" lon="5.8886">
        <ele>413</ele>
        <time>2016-06-05T07:52:15Z</time>
      </trkpt>
      <trkpt lat="43.53333" lon="5.88883">
        <ele>413</ele>
        <time>2016-06-05T07:52:19Z</time>
      </trkpt>
      <trkpt lat="43.53346" lon="5.88903">
        <ele>408</ele>
        <time>2016-06-05T07:52:23Z</time>
      </trkpt>
      <trkpt lat="43.53358" lon="5.88925">
        <ele>408</ele>
        <time>2016-06-05T07:52:27Z</time>
      </trkpt>
      <trkpt lat="43.53369" lon="5.88946">
        <ele>408</ele>
        <time>2016-06-05T07:52:31Z</time>
      </trkpt>
      <trkpt lat="43.53382" lon="5.88968">
        <ele>407</ele>
        <time>2016-06-05T07:52:35Z</time>
      </trkpt>
      <trkpt lat="43.53399" lon="5.88985">
        <ele>407</ele>
        <time>2016-06-05T07:52:39Z</time>
      </trkpt>
      <trkpt lat="43.53419" lon="5.88997">
        <ele>404</ele>
        <time>2016-06-05T07:52:43Z</time>
      </trkpt>
      <trkpt lat="43.5344" lon="5.89003">
        <ele>401</ele>
        <time>2016-06-05T07:52:47Z</time>
      </trkpt>
      <trkpt lat="43.5346" lon="5.89014">
        <ele>398</ele>
        <time>2016-06-05T07:52:51Z</time>
      </trkpt>
      <trkpt lat="43.53468" lon="5.89042">
        <ele>398</ele>
        <time>2016-06-05T07:52:55Z</time>
      </trkpt>
      <trkpt lat="43.53465" lon="5.89071">
        <ele>397</ele>
        <time>2016-06-05T07:52:59Z</time>
      </trkpt>
      <trkpt lat="43.53451" lon="5.89097">
        <ele>397</ele>
        <time>2016-06-05T07:53:03Z</time>
      </trkpt>
      <trkpt lat="43.53438" lon="5.89113">
        <ele>398</ele>
        <time>2016-06-05T07:53:06Z</time>
      </trkpt>
      <trkpt lat="43.53421" lon="5.89129">
        <ele>397</ele>
        <time>2016-06-05T07:53:09Z</time>
      </trkpt>
      <trkpt lat="43.53402" lon="5.89147">
        <ele>402</ele>
        <time>2016-06-05T07:53:12Z</time>
      </trkpt>
      <trkpt lat="43.53386" lon="5.8916">
        <ele>402</ele>
        <time>2016-06-05T07:53:14Z</time>
      </trkpt>
      <trkpt lat="43.53371" lon="5.89174">
        <ele>397</ele>
        <time>2016-06-05T07:53:16Z</time>
      </trkpt>
      <trkpt lat="43.53354" lon="5.89188">
        <ele>397</ele>
        <time>2016-06-05T07:53:18Z</time>
      </trkpt>
      <trkpt lat="43.53337" lon="5.89202">
        <ele>397</ele>
        <time>2016-06-05T07:53:20Z</time>
      </trkpt>
      <trkpt lat="43.53321" lon="5.89217">
        <ele>398</ele>
        <time>2016-06-05T07:53:22Z</time>
      </trkpt>
      <trkpt lat="43.53303" lon="5.89231">
        <ele>398</ele>
        <time>2016-06-05T07:53:24Z</time>
      </trkpt>
      <trkpt lat="43.53286" lon="5.89246">
        <ele>398</ele>
        <time>2016-06-05T07:53:26Z</time>
      </trkpt>
      <trkpt lat="43.53267" lon="5.89262">
        <ele>393</ele>
        <time>2016-06-05T07:53:28Z</time>
      </trkpt>
      <trkpt lat="43.53248" lon="5.89277">
        <ele>394</ele>
        <time>2016-06-05T07:53:30Z</time>
      </trkpt>
      <trkpt lat="43.5323" lon="5.89292">
        <ele>393</ele>
        <time>2016-06-05T07:53:32Z</time>
      </trkpt>
      <trkpt lat="43.53211" lon="5.89306">
        <ele>393</ele>
        <time>2016-06-05T07:53:34Z</time>
      </trkpt>
      <trkpt lat="43.53193" lon="5.89317">
        <ele>393</ele>
        <time>2016-06-05T07:53:36Z</time>
      </trkpt>
      <trkpt lat="43.53175" lon="5.89326">
        <ele>393</ele>
        <time>2016-06-05T07:53:38Z</time>
      </trkpt>
      <trkpt lat="43.53157" lon="5.89336">
        <ele>391</ele>
        <time>2016-06-05T07:53:40Z</time>
      </trkpt>
      <trkpt lat="43.5314" lon="5.89351">
        <ele>390</ele>
        <time>2016-06-05T07:53:42Z</time>
      </trkpt>
      <trkpt lat="43.53123" lon="5.89367">
        <ele>390</ele>
        <time>2016-06-05T07:53:44Z</time>
      </trkpt>
      <trkpt lat="43.53107" lon="5.89384">
        <ele>389</ele>
        <time>2016-06-05T07:53:46Z</time>
      </trkpt>
      <trkpt lat="43.53091" lon="5.89401">
        <ele>386</ele>
        <time>2016-06-05T07:53:48Z</time>
      </trkpt>
      <trkpt lat="43.53074" lon="5.89417">
        <ele>383</ele>
        <time>2016-06-05T07:53:50Z</time>
      </trkpt>
      <trkpt lat="43.53056" lon="5.8943">
        <ele>382</ele>
        <time>2016-06-05T07:53:52Z</time>
      </trkpt>
      <trkpt lat="43.5304" lon="5.89442">
        <ele>382</ele>
        <time>2016-06-05T07:53:54Z</time>
      </trkpt>
      <trkpt lat="43.53015" lon="5.89458">
        <ele>382</ele>
        <time>2016-06-05T07:53:57Z</time>
      </trkpt>
      <trkpt lat="43.52998" lon="5.89465">
        <ele>384</ele>
        <time>2016-06-05T07:53:59Z</time>
      </trkpt>
      <trkpt lat="43.52974" lon="5.89478">
        <ele>383</ele>
        <time>2016-06-05T07:54:02Z</time>
      </trkpt>
      <trkpt lat="43.52949" lon="5.89491">
        <ele>383</ele>
        <time>2016-06-05T07:54:05Z</time>
      </trkpt>
      <trkpt lat="43.52923" lon="5.89503">
        <ele>378</ele>
        <time>2016-06-05T07:54:08Z</time>
      </trkpt>
      <trkpt lat="43.52905" lon="5.89511">
        <ele>379</ele>
        <time>2016-06-05T07:54:10Z</time>
      </trkpt>
      <trkpt lat="43.52887" lon="5.89518">
        <ele>378</ele>
        <time>2016-06-05T07:54:12Z</time>
      </trkpt>
      <trkpt lat="43.52863" lon="5.89529">
        <ele>378</ele>
        <time>2016-06-05T07:54:15Z</time>
      </trkpt>
      <trkpt lat="43.52839" lon="5.89541">
        <ele>378</ele>
        <time>2016-06-05T07:54:18Z</time>
      </trkpt>
      <trkpt lat="43.52819" lon="5.89553">
        <ele>379</ele>
        <time>2016-06-05T07:54:21Z</time>
      </trkpt>
      <trkpt lat="43.52799" lon="5.89562">
        <ele>380</ele>
        <time>2016-06-05T07:54:24Z</time>
      </trkpt>
      <trkpt lat="43.52781" lon="5.8957">
        <ele>380</ele>
        <time>2016-06-05T07:54:27Z</time>
      </trkpt>
      <trkpt lat="43.52763" lon="5.89572">
        <ele>380</ele>
        <time>2016-06-05T07:54:30Z</time>
      </trkpt>
      <trkpt lat="43.52744" lon="5.89571">
        <ele>381</ele>
        <time>2016-06-05T07:54:33Z</time>
      </trkpt>
      <trkpt lat="43.52722" lon="5.8957">
        <ele>383</ele>
        <time>2016-06-05T07:54:37Z</time>
      </trkpt>
      <trkpt lat="43.52703" lon="5.89568">
        <ele>384</ele>
        <time>2016-06-05T07:54:41Z</time>
      </trkpt>
      <trkpt lat="43.52681" lon="5.89565">
        <ele>384</ele>
        <time>2016-06-05T07:54:46Z</time>
      </trkpt>
      <trkpt lat="43.52663" lon="5.89565">
        <ele>385</ele>
        <time>2016-06-05T07:54:50Z</time>
      </trkpt>
      <trkpt lat="43.52642" lon="5.89567">
        <ele>387</ele>
        <time>2016-06-05T07:54:55Z</time>
      </trkpt>
      <trkpt lat="43.52621" lon="5.89565">
        <ele>387</ele>
        <time>2016-06-05T07:55:00Z</time>
      </trkpt>
      <trkpt lat="43.52602" lon="5.89564">
        <ele>387</ele>
        <time>2016-06-05T07:55:04Z</time>
      </trkpt>
      <trkpt lat="43.52582" lon="5.89564">
        <ele>388</ele>
        <time>2016-06-05T07:55:08Z</time>
      </trkpt>
      <trkpt lat="43.5256" lon="5.89564">
        <ele>389</ele>
        <time>2016-06-05T07:55:13Z</time>
      </trkpt>
      <trkpt lat="43.52538" lon="5.89564">
        <ele>390</ele>
        <time>2016-06-05T07:55:18Z</time>
      </trkpt>
      <trkpt lat="43.52519" lon="5.89563">
        <ele>389</ele>
        <time>2016-06-05T07:55:22Z</time>
      </trkpt>
      <trkpt lat="43.525" lon="5.89561">
        <ele>389</ele>
        <time>2016-06-05T07:55:26Z</time>
      </trkpt>
      <trkpt lat="43.52481" lon="5.89563">
        <ele>390</ele>
        <time>2016-06-05T07:55:30Z</time>
      </trkpt>
      <trkpt lat="43.52461" lon="5.89565">
        <ele>390</ele>
        <time>2016-06-05T07:55:34Z</time>
      </trkpt>
      <trkpt lat="43.52441" lon="5.89565">
        <ele>390</ele>
        <time>2016-06-05T07:55:39Z</time>
      </trkpt>
      <trkpt lat="43.52422" lon="5.89565">
        <ele>389</ele>
        <time>2016-06-05T07:55:44Z</time>
      </trkpt>
      <trkpt lat="43.52401" lon="5.89562">
        <ele>389</ele>
        <time>2016-06-05T07:55:49Z</time>
      </trkpt>
      <trkpt lat="43.52379" lon="5.8956">
        <ele>389</ele>
        <time>2016-06-05T07:55:54Z</time>
      </trkpt>
      <trkpt lat="43.52361" lon="5.89561">
        <ele>389</ele>
        <time>2016-06-05T07:55:58Z</time>
      </trkpt>
      <trkpt lat="43.52342" lon="5.89563">
        <ele>387</ele>
        <time>2016-06-05T07:56:02Z</time>
      </trkpt>
      <trkpt lat="43.52323" lon="5.89563">
        <ele>387</ele>
        <time>2016-06-05T07:56:06Z</time>
      </trkpt>
      <trkpt lat="43.52304" lon="5.89563">
        <ele>389</ele>
        <time>2016-06-05T07:56:10Z</time>
      </trkpt>
      <trkpt lat="43.52285" lon="5.89562">
        <ele>390</ele>
        <time>2016-06-05T07:56:14Z</time>
      </trkpt>
      <trkpt lat="43.52263" lon="5.89562">
        <ele>389</ele>
        <time>2016-06-05T07:56:19Z</time>
      </trkpt>
      <trkpt lat="43.52243" lon="5.89565">
        <ele>392</ele>
        <time>2016-06-05T07:56:24Z</time>
      </trkpt>
      <trkpt lat="43.52224" lon="5.8957">
        <ele>393</ele>
        <time>2016-06-05T07:56:29Z</time>
      </trkpt>
      <trkpt lat="43.52205" lon="5.89579">
        <ele>395</ele>
        <time>2016-06-05T07:56:35Z</time>
      </trkpt>
      <trkpt lat="43.52185" lon="5.89588">
        <ele>388</ele>
        <time>2016-06-05T07:56:41Z</time>
      </trkpt>
      <trkpt lat="43.52166" lon="5.89596">
        <ele>391</ele>
        <time>2016-06-05T07:56:46Z</time>
      </trkpt>
      <trkpt lat="43.52148" lon="5.89605">
        <ele>390</ele>
        <time>2016-06-05T07:56:51Z</time>
      </trkpt>
      <trkpt lat="43.52129" lon="5.89614">
        <ele>390</ele>
        <time>2016-06-05T07:56:56Z</time>
      </trkpt>
      <trkpt lat="43.52108" lon="5.89622">
        <ele>390</ele>
        <time>2016-06-05T07:57:01Z</time>
      </trkpt>
      <trkpt lat="43.52088" lon="5.89632">
        <ele>389</ele>
        <time>2016-06-05T07:57:06Z</time>
      </trkpt>
      <trkpt lat="43.52069" lon="5.89641">
        <ele>390</ele>
        <time>2016-06-05T07:57:11Z</time>
      </trkpt>
      <trkpt lat="43.52047" lon="5.89647">
        <ele>391</ele>
        <time>2016-06-05T07:57:16Z</time>
      </trkpt>
      <trkpt lat="43.52028" lon="5.89652">
        <ele>391</ele>
        <time>2016-06-05T07:57:20Z</time>
      </trkpt>
      <trkpt lat="43.52006" lon="5.89659">
        <ele>390</ele>
        <time>2016-06-05T07:57:25Z</time>
      </trkpt>
      <trkpt lat="43.51988" lon="5.89667">
        <ele>388</ele>
        <time>2016-06-05T07:57:29Z</time>
      </trkpt>
      <trkpt lat="43.5197" lon="5.89674">
        <ele>387</ele>
        <time>2016-06-05T07:57:33Z</time>
      </trkpt>
      <trkpt lat="43.51952" lon="5.8968">
        <ele>388</ele>
        <time>2016-06-05T07:57:37Z</time>
      </trkpt>
      <trkpt lat="43.5193" lon="5.89689">
        <ele>388</ele>
        <time>2016-06-05T07:57:42Z</time>
      </trkpt>
      <trkpt lat="43.51912" lon="5.89694">
        <ele>389</ele>
        <time>2016-06-05T07:57:46Z</time>
      </trkpt>
      <trkpt lat="43.5189" lon="5.89697">
        <ele>389</ele>
        <time>2016-06-05T07:57:51Z</time>
      </trkpt>
      <trkpt lat="43.51869" lon="5.897">
        <ele>389</ele>
        <time>2016-06-05T07:57:56Z</time>
      </trkpt>
      <trkpt lat="43.51848" lon="5.89704">
        <ele>389</ele>
        <time>2016-06-05T07:58:01Z</time>
      </trkpt>
      <trkpt lat="43.51828" lon="5.89705">
        <ele>390</ele>
        <time>2016-06-05T07:58:06Z</time>
      </trkpt>
      <trkpt lat="43.51807" lon="5.89706">
        <ele>390</ele>
        <time>2016-06-05T07:58:11Z</time>
      </trkpt>
      <trkpt lat="43.51789" lon="5.89705">
        <ele>390</ele>
        <time>2016-06-05T07:58:16Z</time>
      </trkpt>
      <trkpt lat="43.5177" lon="5.89703">
        <ele>390</ele>
        <time>2016-06-05T07:58:21Z</time>
      </trkpt>
      <trkpt lat="43.51752" lon="5.89697">
        <ele>391</ele>
        <time>2016-06-05T07:58:26Z</time>
      </trkpt>
      <trkpt lat="43.51733" lon="5.89689">
        <ele>392</ele>
        <time>2016-06-05T07:58:31Z</time>
      </trkpt>
      <trkpt lat="43.51715" lon="5.89682">
        <ele>392</ele>
        <time>2016-06-05T07:58:36Z</time>
      </trkpt>
      <trkpt lat="43.51694" lon="5.89678">
        <ele>392</ele>
        <time>2016-06-05T07:58:42Z</time>
      </trkpt>
      <trkpt lat="43.51676" lon="5.89676">
        <ele>393</ele>
        <time>2016-06-05T07:58:47Z</time>
      </trkpt>
      <trkpt lat="43.51657" lon="5.89672">
        <ele>393</ele>
        <time>2016-06-05T07:58:52Z</time>
      </trkpt>
      <trkpt lat="43.51639" lon="5.89666">
        <ele>394</ele>
        <time>2016-06-05T07:58:57Z</time>
      </trkpt>
      <trkpt lat="43.51619" lon="5.8966">
        <ele>394</ele>
        <time>2016-06-05T07:59:02Z</time>
      </trkpt>
      <trkpt lat="43.51601" lon="5.89654">
        <ele>394</ele>
        <time>2016-06-05T07:59:07Z</time>
      </trkpt>
      <trkpt lat="43.51583" lon="5.89652">
        <ele>393</ele>
        <time>2016-06-05T07:59:13Z</time>
      </trkpt>
      <trkpt lat="43.51564" lon="5.89662">
        <ele>393</ele>
        <time>2016-06-05T07:59:19Z</time>
      </trkpt>
      <trkpt lat="43.51546" lon="5.89668">
        <ele>392</ele>
        <time>2016-06-05T07:59:23Z</time>
      </trkpt>
      <trkpt lat="43.51527" lon="5.8967">
        <ele>392</ele>
        <time>2016-06-05T07:59:27Z</time>
      </trkpt>
      <trkpt lat="43.51506" lon="5.89674">
        <ele>391</ele>
        <time>2016-06-05T07:59:31Z</time>
      </trkpt>
      <trkpt lat="43.51485" lon="5.89687">
        <ele>390</ele>
        <time>2016-06-05T07:59:35Z</time>
      </trkpt>
      <trkpt lat="43.51468" lon="5.89696">
        <ele>390</ele>
        <time>2016-06-05T07:59:38Z</time>
      </trkpt>
      <trkpt lat="43.51448" lon="5.89709">
        <ele>389</ele>
        <time>2016-06-05T07:59:42Z</time>
      </trkpt>
      <trkpt lat="43.51427" lon="5.89726">
        <ele>388</ele>
        <time>2016-06-05T07:59:46Z</time>
      </trkpt>
      <trkpt lat="43.51412" lon="5.89741">
        <ele>387</ele>
        <time>2016-06-05T07:59:49Z</time>
      </trkpt>
      <trkpt lat="43.51396" lon="5.89758">
        <ele>385</ele>
        <time>2016-06-05T07:59:52Z</time>
      </trkpt>
      <trkpt lat="43.51379" lon="5.89777">
        <ele>385</ele>
        <time>2016-06-05T07:59:55Z</time>
      </trkpt>
      <trkpt lat="43.51362" lon="5.89798">
        <ele>384</ele>
        <time>2016-06-05T07:59:58Z</time>
      </trkpt>
      <trkpt lat="43.51345" lon="5.89818">
        <ele>383</ele>
        <time>2016-06-05T08:00:01Z</time>
      </trkpt>
      <trkpt lat="43.51329" lon="5.89836">
        <ele>381</ele>
        <time>2016-06-05T08:00:04Z</time>
      </trkpt>
      <trkpt lat="43.51312" lon="5.89853">
        <ele>380</ele>
        <time>2016-06-05T08:00:07Z</time>
      </trkpt>
      <trkpt lat="43.51295" lon="5.89867">
        <ele>379</ele>
        <time>2016-06-05T08:00:10Z</time>
      </trkpt>
      <trkpt lat="43.51277" lon="5.89877">
        <ele>379</ele>
        <time>2016-06-05T08:00:13Z</time>
      </trkpt>
      <trkpt lat="43.51262" lon="5.89897">
        <ele>378</ele>
        <time>2016-06-05T08:00:16Z</time>
      </trkpt>
      <trkpt lat="43.51246" lon="5.89919">
        <ele>375</ele>
        <time>2016-06-05T08:00:19Z</time>
      </trkpt>
      <trkpt lat="43.51227" lon="5.89943">
        <ele>374</ele>
        <time>2016-06-05T08:00:22Z</time>
      </trkpt>
      <trkpt lat="43.51214" lon="5.89961">
        <ele>374</ele>
        <time>2016-06-05T08:00:24Z</time>
      </trkpt>
      <trkpt lat="43.512" lon="5.89978">
        <ele>373</ele>
        <time>2016-06-05T08:00:26Z</time>
      </trkpt>
      <trkpt lat="43.51185" lon="5.89994">
        <ele>371</ele>
        <time>2016-06-05T08:00:28Z</time>
      </trkpt>
      <trkpt lat="43.5116" lon="5.90008">
        <ele>368</ele>
        <time>2016-06-05T08:00:31Z</time>
      </trkpt>
      <trkpt lat="43.51142" lon="5.9001">
        <ele>368</ele>
        <time>2016-06-05T08:00:33Z</time>
      </trkpt>
      <trkpt lat="43.51123" lon="5.90011">
        <ele>368</ele>
        <time>2016-06-05T08:00:35Z</time>
      </trkpt>
      <trkpt lat="43.51103" lon="5.90013">
        <ele>366</ele>
        <time>2016-06-05T08:00:37Z</time>
      </trkpt>
      <trkpt lat="43.51084" lon="5.90009">
        <ele>363</ele>
        <time>2016-06-05T08:00:39Z</time>
      </trkpt>
      <trkpt lat="43.51059" lon="5.90004">
        <ele>360</ele>
        <time>2016-06-05T08:00:42Z</time>
      </trkpt>
      <trkpt lat="43.51035" lon="5.90006">
        <ele>358</ele>
        <time>2016-06-05T08:00:45Z</time>
      </trkpt>
      <trkpt lat="43.51009" lon="5.90006">
        <ele>354</ele>
        <time>2016-06-05T08:00:48Z</time>
      </trkpt>
      <trkpt lat="43.5099" lon="5.90007">
        <ele>352</ele>
        <time>2016-06-05T08:00:50Z</time>
      </trkpt>
      <trkpt lat="43.50971" lon="5.90008">
        <ele>352</ele>
        <time>2016-06-05T08:00:52Z</time>
      </trkpt>
      <trkpt lat="43.50952" lon="5.90006">
        <ele>352</ele>
        <time>2016-06-05T08:00:54Z</time>
      </trkpt>
      <trkpt lat="43.50932" lon="5.90004">
        <ele>350</ele>
        <time>2016-06-05T08:00:56Z</time>
      </trkpt>
      <trkpt lat="43.50912" lon="5.90003">
        <ele>347</ele>
        <time>2016-06-05T08:00:58Z</time>
      </trkpt>
      <trkpt lat="43.50894" lon="5.89999">
        <ele>346</ele>
        <time>2016-06-05T08:01:00Z</time>
      </trkpt>
      <trkpt lat="43.50869" lon="5.90002">
        <ele>344</ele>
        <time>2016-06-05T08:01:03Z</time>
      </trkpt>
      <trkpt lat="43.50847" lon="5.90019">
        <ele>342</ele>
        <time>2016-06-05T08:01:06Z</time>
      </trkpt>
      <trkpt lat="43.50826" lon="5.90035">
        <ele>338</ele>
        <time>2016-06-05T08:01:09Z</time>
      </trkpt>
      <trkpt lat="43.50807" lon="5.90054">
        <ele>338</ele>
        <time>2016-06-05T08:01:12Z</time>
      </trkpt>
      <trkpt lat="43.50787" lon="5.90077">
        <ele>337</ele>
        <time>2016-06-05T08:01:15Z</time>
      </trkpt>
      <trkpt lat="43.50774" lon="5.90095">
        <ele>337</ele>
        <time>2016-06-05T08:01:17Z</time>
      </trkpt>
      <trkpt lat="43.50752" lon="5.90114">
        <ele>337</ele>
        <time>2016-06-05T08:01:20Z</time>
      </trkpt>
      <trkpt lat="43.50727" lon="5.9012">
        <ele>332</ele>
        <time>2016-06-05T08:01:23Z</time>
      </trkpt>
      <trkpt lat="43.50707" lon="5.90136">
        <ele>331</ele>
        <time>2016-06-05T08:01:26Z</time>
      </trkpt>
      <trkpt lat="43.50685" lon="5.90152">
        <ele>330</ele>
        <time>2016-06-05T08:01:29Z</time>
      </trkpt>
      <trkpt lat="43.50659" lon="5.90153">
        <ele>328</ele>
        <time>2016-06-05T08:01:32Z</time>
      </trkpt>
      <trkpt lat="43.50635" lon="5.90159">
        <ele>328</ele>
        <time>2016-06-05T08:01:35Z</time>
      </trkpt>
      <trkpt lat="43.50611" lon="5.90165">
        <ele>326</ele>
        <time>2016-06-05T08:01:38Z</time>
      </trkpt>
      <trkpt lat="43.50589" lon="5.90153">
        <ele>325</ele>
        <time>2016-06-05T08:01:41Z</time>
      </trkpt>
      <trkpt lat="43.50568" lon="5.90154">
        <ele>326</ele>
        <time>2016-06-05T08:01:44Z</time>
      </trkpt>
      <trkpt lat="43.5055" lon="5.90172">
        <ele>324</ele>
        <time>2016-06-05T08:01:47Z</time>
      </trkpt>
      <trkpt lat="43.50531" lon="5.90182">
        <ele>324</ele>
        <time>2016-06-05T08:01:50Z</time>
      </trkpt>
      <trkpt lat="43.50512" lon="5.90202">
        <ele>324</ele>
        <time>2016-06-05T08:01:54Z</time>
      </trkpt>
      <trkpt lat="43.505" lon="5.90225">
        <ele>319</ele>
        <time>2016-06-05T08:01:57Z</time>
      </trkpt>
      <trkpt lat="43.50483" lon="5.90244">
        <ele>319</ele>
        <time>2016-06-05T08:02:00Z</time>
      </trkpt>
      <trkpt lat="43.50463" lon="5.90257">
        <ele>317</ele>
        <time>2016-06-05T08:02:03Z</time>
      </trkpt>
      <trkpt lat="43.50445" lon="5.90274">
        <ele>316</ele>
        <time>2016-06-05T08:02:06Z</time>
      </trkpt>
      <trkpt lat="43.50424" lon="5.90283">
        <ele>315</ele>
        <time>2016-06-05T08:02:09Z</time>
      </trkpt>
      <trkpt lat="43.50404" lon="5.90286">
        <ele>305</ele>
        <time>2016-06-05T08:02:12Z</time>
      </trkpt>
      <trkpt lat="43.50388" lon="5.90306">
        <ele>304</ele>
        <time>2016-06-05T08:02:16Z</time>
      </trkpt>
      <trkpt lat="43.50372" lon="5.90325">
        <ele>302</ele>
        <time>2016-06-05T08:02:19Z</time>
      </trkpt>
      <trkpt lat="43.50352" lon="5.90341">
        <ele>302</ele>
        <time>2016-06-05T08:02:22Z</time>
      </trkpt>
      <trkpt lat="43.5033" lon="5.90356">
        <ele>295</ele>
        <time>2016-06-05T08:02:25Z</time>
      </trkpt>
      <trkpt lat="43.50309" lon="5.90371">
        <ele>295</ele>
        <time>2016-06-05T08:02:28Z</time>
      </trkpt>
      <trkpt lat="43.50287" lon="5.90385">
        <ele>293</ele>
        <time>2016-06-05T08:02:31Z</time>
      </trkpt>
      <trkpt lat="43.5027" lon="5.904">
        <ele>291</ele>
        <time>2016-06-05T08:02:34Z</time>
      </trkpt>
      <trkpt lat="43.50254" lon="5.90419">
        <ele>289</ele>
        <time>2016-06-05T08:02:37Z</time>
      </trkpt>
      <trkpt lat="43.50242" lon="5.90438">
        <ele>285</ele>
        <time>2016-06-05T08:02:40Z</time>
      </trkpt>
      <trkpt lat="43.50248" lon="5.90411">
        <ele>286</ele>
        <time>2016-06-05T08:03:27Z</time>
      </trkpt>
      <trkpt lat="43.50254" lon="5.90387">
        <ele>291</ele>
        <time>2016-06-05T08:03:35Z</time>
      </trkpt>
      <trkpt lat="43.50253" lon="5.9036">
        <ele>290</ele>
        <time>2016-06-05T08:03:42Z</time>
      </trkpt>
      <trkpt lat="43.50255" lon="5.90333">
        <ele>287</ele>
        <time>2016-06-05T08:03:50Z</time>
      </trkpt>
      <trkpt lat="43.50251" lon="5.90307">
        <ele>289</ele>
        <time>2016-06-05T08:03:57Z</time>
      </trkpt>
      <trkpt lat="43.50247" lon="5.90279">
        <ele>285</ele>
        <time>2016-06-05T08:04:04Z</time>
      </trkpt>
      <trkpt lat="43.50247" lon="5.90253">
        <ele>287</ele>
        <time>2016-06-05T08:04:10Z</time>
      </trkpt>
      <trkpt lat="43.5025" lon="5.90228">
        <ele>286</ele>
        <time>2016-06-05T08:04:16Z</time>
      </trkpt>
      <trkpt lat="43.50255" lon="5.90203">
        <ele>293</ele>
        <time>2016-06-05T08:04:22Z</time>
      </trkpt>
      <trkpt lat="43.50263" lon="5.90179">
        <ele>292</ele>
        <time>2016-06-05T08:04:29Z</time>
      </trkpt>
      <trkpt lat="43.50271" lon="5.90155">
        <ele>295</ele>
        <time>2016-06-05T08:04:36Z</time>
      </trkpt>
      <trkpt lat="43.50279" lon="5.9013">
        <ele>297</ele>
        <time>2016-06-05T08:04:44Z</time>
      </trkpt>
      <trkpt lat="43.50287" lon="5.90107">
        <ele>298</ele>
        <time>2016-06-05T08:04:52Z</time>
      </trkpt>
      <trkpt lat="43.50297" lon="5.90082">
        <ele>301</ele>
        <time>2016-06-05T08:05:01Z</time>
      </trkpt>
      <trkpt lat="43.50307" lon="5.90058">
        <ele>302</ele>
        <time>2016-06-05T08:05:10Z</time>
      </trkpt>
      <trkpt lat="43.50311" lon="5.90033">
        <ele>303</ele>
        <time>2016-06-05T08:05:18Z</time>
      </trkpt>
      <trkpt lat="43.50316" lon="5.90008">
        <ele>306</ele>
        <time>2016-06-05T08:05:27Z</time>
      </trkpt>
      <trkpt lat="43.5032" lon="5.89983">
        <ele>309</ele>
        <time>2016-06-05T08:05:37Z</time>
      </trkpt>
      <trkpt lat="43.50306" lon="5.89967">
        <ele>308</ele>
        <time>2016-06-05T08:05:47Z</time>
      </trkpt>
      <trkpt lat="43.50288" lon="5.89961">
        <ele>307</ele>
        <time>2016-06-05T08:05:53Z</time>
      </trkpt>
      <trkpt lat="43.50274" lon="5.89941">
        <ele>306</ele>
        <time>2016-06-05T08:05:59Z</time>
      </trkpt>
      <trkpt lat="43.50256" lon="5.89921">
        <ele>303</ele>
        <time>2016-06-05T08:06:04Z</time>
      </trkpt>
      <trkpt lat="43.50239" lon="5.89901">
        <ele>299</ele>
        <time>2016-06-05T08:06:08Z</time>
      </trkpt>
      <trkpt lat="43.50226" lon="5.89883">
        <ele>298</ele>
        <time>2016-06-05T08:06:13Z</time>
      </trkpt>
      <trkpt lat="43.50213" lon="5.89859">
        <ele>298</ele>
        <time>2016-06-05T08:06:17Z</time>
      </trkpt>
      <trkpt lat="43.50202" lon="5.89837">
        <ele>296</ele>
        <time>2016-06-05T08:06:20Z</time>
      </trkpt>
      <trkpt lat="43.50189" lon="5.89812">
        <ele>296</ele>
        <time>2016-06-05T08:06:24Z</time>
      </trkpt>
      <trkpt lat="43.50172" lon="5.89799">
        <ele>296</ele>
        <time>2016-06-05T08:06:28Z</time>
      </trkpt>
      <trkpt lat="43.50155" lon="5.89784">
        <ele>288</ele>
        <time>2016-06-05T08:06:36Z</time>
      </trkpt>
      <trkpt lat="43.50134" lon="5.89772">
        <ele>287</ele>
        <time>2016-06-05T08:06:42Z</time>
      </trkpt>
      <trkpt lat="43.50114" lon="5.89762">
        <ele>287</ele>
        <time>2016-06-05T08:06:48Z</time>
      </trkpt>
      <trkpt lat="43.50099" lon="5.89746">
        <ele>287</ele>
        <time>2016-06-05T08:06:56Z</time>
      </trkpt>
      <trkpt lat="43.5008" lon="5.89739">
        <ele>285</ele>
        <time>2016-06-05T08:07:26Z</time>
      </trkpt>
      <trkpt lat="43.50063" lon="5.8973">
        <ele>284</ele>
        <time>2016-06-05T08:07:35Z</time>
      </trkpt>
      <trkpt lat="43.50043" lon="5.89719">
        <ele>284</ele>
        <time>2016-06-05T08:07:42Z</time>
      </trkpt>
      <trkpt lat="43.50025" lon="5.89709">
        <ele>284</ele>
        <time>2016-06-05T08:07:48Z</time>
      </trkpt>
      <trkpt lat="43.50007" lon="5.89698">
        <ele>284</ele>
        <time>2016-06-05T08:07:54Z</time>
      </trkpt>
      <trkpt lat="43.49995" lon="5.89676">
        <ele>282</ele>
        <time>2016-06-05T08:08:03Z</time>
      </trkpt>
      <trkpt lat="43.49998" lon="5.8965">
        <ele>282</ele>
        <time>2016-06-05T08:08:07Z</time>
      </trkpt>
      <trkpt lat="43.50004" lon="5.89623">
        <ele>284</ele>
        <time>2016-06-05T08:08:11Z</time>
      </trkpt>
      <trkpt lat="43.50008" lon="5.89594">
        <ele>283</ele>
        <time>2016-06-05T08:08:15Z</time>
      </trkpt>
      <trkpt lat="43.50012" lon="5.89566">
        <ele>283</ele>
        <time>2016-06-05T08:08:19Z</time>
      </trkpt>
      <trkpt lat="43.50017" lon="5.89537">
        <ele>283</ele>
        <time>2016-06-05T08:08:23Z</time>
      </trkpt>
      <trkpt lat="43.50028" lon="5.89513">
        <ele>283</ele>
        <time>2016-06-05T08:08:27Z</time>
      </trkpt>
      <trkpt lat="43.50039" lon="5.89491">
        <ele>284</ele>
        <time>2016-06-05T08:08:31Z</time>
      </trkpt>
      <trkpt lat="43.50049" lon="5.8947">
        <ele>285</ele>
        <time>2016-06-05T08:08:35Z</time>
      </trkpt>
      <trkpt lat="43.50063" lon="5.89445">
        <ele>285</ele>
        <time>2016-06-05T08:08:40Z</time>
      </trkpt>
      <trkpt lat="43.50076" lon="5.8942">
        <ele>285</ele>
        <time>2016-06-05T08:08:45Z</time>
      </trkpt>
      <trkpt lat="43.50088" lon="5.89395">
        <ele>286</ele>
        <time>2016-06-05T08:08:50Z</time>
      </trkpt>
      <trkpt lat="43.501" lon="5.89373">
        <ele>286</ele>
        <time>2016-06-05T08:08:55Z</time>
      </trkpt>
      <trkpt lat="43.50113" lon="5.8935">
        <ele>286</ele>
        <time>2016-06-05T08:09:01Z</time>
      </trkpt>
      <trkpt lat="43.50127" lon="5.89333">
        <ele>287</ele>
        <time>2016-06-05T08:09:06Z</time>
      </trkpt>
      <trkpt lat="43.50142" lon="5.89312">
        <ele>288</ele>
        <time>2016-06-05T08:09:12Z</time>
      </trkpt>
      <trkpt lat="43.50153" lon="5.89292">
        <ele>288</ele>
        <time>2016-06-05T08:09:18Z</time>
      </trkpt>
      <trkpt lat="43.50165" lon="5.89272">
        <ele>289</ele>
        <time>2016-06-05T08:09:24Z</time>
      </trkpt>
      <trkpt lat="43.50177" lon="5.8925">
        <ele>291</ele>
        <time>2016-06-05T08:09:30Z</time>
      </trkpt>
      <trkpt lat="43.5019" lon="5.89228">
        <ele>292</ele>
        <time>2016-06-05T08:09:36Z</time>
      </trkpt>
      <trkpt lat="43.50201" lon="5.89208">
        <ele>293</ele>
        <time>2016-06-05T08:09:42Z</time>
      </trkpt>
      <trkpt lat="43.50213" lon="5.89188">
        <ele>293</ele>
        <time>2016-06-05T08:09:48Z</time>
      </trkpt>
      <trkpt lat="43.50225" lon="5.89165">
        <ele>295</ele>
        <time>2016-06-05T08:09:54Z</time>
      </trkpt>
      <trkpt lat="43.50236" lon="5.89144">
        <ele>295</ele>
        <time>2016-06-05T08:10:00Z</time>
      </trkpt>
      <trkpt lat="43.50249" lon="5.89122">
        <ele>296</ele>
        <time>2016-06-05T08:10:06Z</time>
      </trkpt>
      <trkpt lat="43.50261" lon="5.89098">
        <ele>298</ele>
        <time>2016-06-05T08:10:12Z</time>
      </trkpt>
      <trkpt lat="43.50269" lon="5.89074">
        <ele>299</ele>
        <time>2016-06-05T08:10:17Z</time>
      </trkpt>
      <trkpt lat="43.50274" lon="5.89049">
        <ele>299</ele>
        <time>2016-06-05T08:10:22Z</time>
      </trkpt>
      <trkpt lat="43.5028" lon="5.89023">
        <ele>299</ele>
        <time>2016-06-05T08:10:27Z</time>
      </trkpt>
      <trkpt lat="43.50287" lon="5.88996">
        <ele>299</ele>
        <time>2016-06-05T08:10:32Z</time>
      </trkpt>
      <trkpt lat="43.50293" lon="5.8897">
        <ele>299</ele>
        <time>2016-06-05T08:10:37Z</time>
      </trkpt>
      <trkpt lat="43.50301" lon="5.88944">
        <ele>300</ele>
        <time>2016-06-05T08:10:42Z</time>
      </trkpt>
      <trkpt lat="43.50313" lon="5.8892">
        <ele>301</ele>
        <time>2016-06-05T08:10:47Z</time>
      </trkpt>
      <trkpt lat="43.50325" lon="5.88896">
        <ele>301</ele>
        <time>2016-06-05T08:10:52Z</time>
      </trkpt>
      <trkpt lat="43.50337" lon="5.88872">
        <ele>306</ele>
        <time>2016-06-05T08:10:57Z</time>
      </trkpt>
      <trkpt lat="43.50347" lon="5.88848">
        <ele>305</ele>
        <time>2016-06-05T08:11:02Z</time>
      </trkpt>
      <trkpt lat="43.50358" lon="5.88824">
        <ele>307</ele>
        <time>2016-06-05T08:11:07Z</time>
      </trkpt>
      <trkpt lat="43.50364" lon="5.88797">
        <ele>308</ele>
        <time>2016-06-05T08:11:12Z</time>
      </trkpt>
      <trkpt lat="43.50362" lon="5.88766">
        <ele>308</ele>
        <time>2016-06-05T08:11:17Z</time>
      </trkpt>
      <trkpt lat="43.50359" lon="5.88741">
        <ele>308</ele>
        <time>2016-06-05T08:11:21Z</time>
      </trkpt>
      <trkpt lat="43.50363" lon="5.88717">
        <ele>309</ele>
        <time>2016-06-05T08:11:26Z</time>
      </trkpt>
      <trkpt lat="43.50374" lon="5.88695">
        <ele>309</ele>
        <time>2016-06-05T08:11:34Z</time>
      </trkpt>
    </trkseg>
  </trk>
</gpx>